Observation data for Claude 12 Southwest on 07/19/2019      Previous  Date  Next       Current Mesonet Observations  Soil Data  Daily Summary Page  Observations in Plain Language
KCL1 190500Z 17010KT 31/14 A2992 RMK A01 T03080141  RH  036%=      5-min Rain = 0
KCL1 190501Z 18009KT 31/14 A2992 RMK A01 T03070141  RH  036%=      5-min Rain = 0
KCL1 190502Z 18010KT 31/14 A2993 RMK A01 T03060141  RH  037%=      5-min Rain = 0
KCL1 190503Z 17009KT 31/14 A2992 RMK A01 T03060141  RH  037%=      5-min Rain = 0
KCL1 190504Z 16009KT 31/14 A2992 RMK A01 T03060141  RH  037%=      5-min Rain = 0
KCL1 190505Z 17012KT 31/14 A2992 RMK A01 T03050142  RH  037%=      5-min Rain = 0
KCL1 190506Z 17013KT 31/14 A2992 RMK A01 T03050141  RH  037%=      5-min Rain = 0
KCL1 190507Z 16013KT 31/14 A2992 RMK A01 T03050141  RH  037%=      5-min Rain = 0
KCL1 190508Z 16011KT 31/14 A2992 RMK A01 T03050141  RH  037%=      5-min Rain = 0
KCL1 190509Z 16012KT 31/14 A2992 RMK A01 T03050142  RH  037%=      5-min Rain = 0
KCL1 190510Z 16015G20KT 30/14 A2992 RMK A01 T03040142  RH  037%=      5-min Rain = 0
KCL1 190511Z 17015KT 31/14 A2992 RMK A01 T03050143  RH  037%=      5-min Rain = 0
KCL1 190512Z 16015KT 31/14 A2992 RMK A01 T03050144  RH  037%=      5-min Rain = 0
KCL1 190513Z 16014KT 31/14 A2992 RMK A01 T03060144  RH  037%=      5-min Rain = 0
KCL1 190514Z 16015G20KT 31/15 A2992 RMK A01 T03060145  RH  037%=      5-min Rain = 0
KCL1 190515Z 17013KT 31/15 A2992 RMK A01 T03060145  RH  038%=      5-min Rain = 0
KCL1 190516Z 17015KT 31/15 A2992 RMK A01 T03060146  RH  038%=      5-min Rain = 0
KCL1 190517Z 17013KT 31/15 A2992 RMK A01 T03050145  RH  038%=      5-min Rain = 0
KCL1 190518Z 17012KT 31/15 A2993 RMK A01 T03050145  RH  038%=      5-min Rain = 0
KCL1 190519Z 16015KT 31/15 A2992 RMK A01 T03050146  RH  038%=      5-min Rain = 0
KCL1 190520Z 16011KT 30/15 A2993 RMK A01 T03040147  RH  038%=      5-min Rain = 0
KCL1 190521Z 16011G18KT 30/15 A2993 RMK A01 T03030147  RH  039%=      5-min Rain = 0
KCL1 190522Z 16014KT 30/15 A2993 RMK A01 T03020148  RH  039%=      5-min Rain = 0
KCL1 190523Z 17013G18KT 30/15 A2993 RMK A01 T03020149  RH  040%=      5-min Rain = 0
KCL1 190524Z 16009KT 30/15 A2993 RMK A01 T03020150  RH  040%=      5-min Rain = 0
KCL1 190525Z 15009KT 30/15 A2993 RMK A01 T03010150  RH  040%=      5-min Rain = 0
KCL1 190526Z 16013KT 30/15 A2993 RMK A01 T03000150  RH  040%=      5-min Rain = 0
KCL1 190527Z 17014KT 30/15 A2993 RMK A01 T02990151  RH  040%=      5-min Rain = 0
KCL1 190528Z 16013KT 30/15 A2993 RMK A01 T02990151  RH  041%=      5-min Rain = 0
KCL1 190529Z 16014KT 30/15 A2993 RMK A01 T02990151  RH  041%=      5-min Rain = 0
KCL1 190530Z 17014G21KT 30/15 A2993 RMK A01 T02990152  RH  041%=      5-min Rain = 0
KCL1 190531Z 16012KT 30/15 A2993 RMK A01 T02990153  RH  041%=      5-min Rain = 0
KCL1 190532Z 16015KT 30/15 A2993 RMK A01 T02990153  RH  041%=      5-min Rain = 0
KCL1 190533Z 16014G19KT 30/15 A2993 RMK A01 T02990152  RH  041%=      5-min Rain = 0
KCL1 190534Z 17015G21KT 30/15 A2992 RMK A01 T02990153  RH  041%=      5-min Rain = 0
KCL1 190535Z 17016KT 30/15 A2992 RMK A01 T02990154  RH  041%=      5-min Rain = 0
KCL1 190536Z 17015KT 30/16 A2993 RMK A01 T02990155  RH  042%=      5-min Rain = 0
KCL1 190537Z 17012KT 30/16 A2993 RMK A01 T02980155  RH  042%=      5-min Rain = 0
KCL1 190538Z 16012G20KT 30/16 A2993 RMK A01 T02970155  RH  042%=      5-min Rain = 0
KCL1 190539Z 16013KT 30/16 A2993 RMK A01 T02960155  RH  042%=      5-min Rain = 0
KCL1 190540Z 17014G19KT 30/16 A2993 RMK A01 T02960155  RH  043%=      5-min Rain = 0
KCL1 190541Z 16011KT 30/16 A2993 RMK A01 T02950156  RH  043%=      5-min Rain = 0
KCL1 190542Z 17010KT 30/16 A2993 RMK A01 T02950155  RH  043%=      5-min Rain = 0
KCL1 190543Z 17011G16KT 29/16 A2993 RMK A01 T02940155  RH  043%=      5-min Rain = 0
KCL1 190544Z 16010KT 29/16 A2993 RMK A01 T02940156  RH  043%=      5-min Rain = 0
KCL1 190545Z 17012KT 29/16 A2993 RMK A01 T02940156  RH  043%=      5-min Rain = 0
KCL1 190546Z 16014G21KT 29/16 A2993 RMK A01 T02940157  RH  043%=      5-min Rain = 0
KCL1 190547Z 16015KT 29/16 A2993 RMK A01 T02940157  RH  043%=      5-min Rain = 0
KCL1 190548Z 16014G19KT 29/16 A2993 RMK A01 T02940157  RH  043%=      5-min Rain = 0
KCL1 190549Z 17014KT 29/16 A2993 RMK A01 T02940157  RH  044%=      5-min Rain = 0
KCL1 190550Z 17014KT 29/16 A2993 RMK A01 T02940157  RH  044%=      5-min Rain = 0
KCL1 190551Z 17014KT 29/16 A2993 RMK A01 T02940157  RH  043%=      5-min Rain = 0
KCL1 190552Z 17012KT 29/16 A2993 RMK A01 T02940156  RH  043%=      5-min Rain = 0
KCL1 190553Z 18011KT 29/16 A2993 RMK A01 T02940157  RH  043%=      5-min Rain = 0
KCL1 190554Z 17012KT 29/16 A2993 RMK A01 T02940157  RH  043%=      5-min Rain = 0
KCL1 190555Z 17013KT 29/16 A2993 RMK A01 T02930156  RH  044%=      5-min Rain = 0
KCL1 190556Z 16016KT 29/16 A2993 RMK A01 T02930157  RH  044%=      5-min Rain = 0
KCL1 190557Z 17011G16KT 29/16 A2993 RMK A01 T02930157  RH  044%=      5-min Rain = 0
KCL1 190558Z 17011KT 29/16 A2993 RMK A01 T02930157  RH  044%=      5-min Rain = 0
KCL1 190559Z 17014KT 29/16 A2993 RMK A01 T02920158  RH  044%=      5-min Rain = 0
KCL1 190600Z 18013KT 29/16 A2993 RMK A01 T02920157  RH  044%=      5-min Rain = 0
KCL1 190601Z 18012KT 29/16 A2993 RMK A01 T02920157  RH  044%=      5-min Rain = 0
KCL1 190602Z 18011KT 29/16 A2993 RMK A01 T02920157  RH  044%=      5-min Rain = 0
KCL1 190603Z 16012KT 29/16 A2993 RMK A01 T02920158  RH  044%=      5-min Rain = 0
KCL1 190604Z 17011G19KT 29/16 A2993 RMK A01 T02910157  RH  044%=      5-min Rain = 0
KCL1 190605Z 17015KT 29/16 A2993 RMK A01 T02910157  RH  044%=      5-min Rain = 0
KCL1 190606Z 17012KT 29/16 A2993 RMK A01 T02910156  RH  044%=      5-min Rain = 0
KCL1 190607Z 17012KT 29/16 A2993 RMK A01 T02910156  RH  044%=      5-min Rain = 0
KCL1 190608Z 17014KT 29/16 A2993 RMK A01 T02910156  RH  044%=      5-min Rain = 0
KCL1 190609Z 17014KT 29/16 A2993 RMK A01 T02910156  RH  044%=      5-min Rain = 0
KCL1 190610Z 17013G19KT 29/16 A2993 RMK A01 T02910156  RH  044%=      5-min Rain = 0
KCL1 190611Z 16015KT 29/16 A2993 RMK A01 T02910156  RH  044%=      5-min Rain = 0
KCL1 190612Z 17013KT 29/16 A2993 RMK A01 T02910157  RH  044%=      5-min Rain = 0
KCL1 190613Z 17014KT 29/16 A2993 RMK A01 T02910157  RH  044%=      5-min Rain = 0
KCL1 190614Z 17013G18KT 29/16 A2993 RMK A01 T02900157  RH  044%=      5-min Rain = 0
KCL1 190615Z 17013KT 29/16 A2993 RMK A01 T02900156  RH  044%=      5-min Rain = 0
KCL1 190616Z 16013KT 29/16 A2993 RMK A01 T02900155  RH  044%=      5-min Rain = 0
KCL1 190617Z 17013G18KT 29/16 A2993 RMK A01 T02900155  RH  044%=      5-min Rain = 0
KCL1 190618Z 17014KT 29/16 A2993 RMK A01 T02910155  RH  044%=      5-min Rain = 0
KCL1 190619Z 17013KT 29/16 A2993 RMK A01 T02910156  RH  044%=      5-min Rain = 0
KCL1 190620Z 17013KT 29/16 A2993 RMK A01 T02910156  RH  044%=      5-min Rain = 0
KCL1 190621Z 18013KT 29/16 A2993 RMK A01 T02900156  RH  044%=      5-min Rain = 0
KCL1 190622Z 16011KT 29/16 A2993 RMK A01 T02890156  RH  044%=      5-min Rain = 0
KCL1 190623Z 17015G20KT 29/16 A2993 RMK A01 T02890155  RH  044%=      5-min Rain = 0
KCL1 190624Z 19011G16KT 29/16 A2993 RMK A01 T02890155  RH  044%=      5-min Rain = 0
KCL1 190625Z 17011G16KT 29/16 A2993 RMK A01 T02890156  RH  044%=      5-min Rain = 0
KCL1 190626Z 19012KT 29/16 A2993 RMK A01 T02890156  RH  044%=      5-min Rain = 0
KCL1 190627Z 18012KT 29/16 A2993 RMK A01 T02890156  RH  044%=      5-min Rain = 0
KCL1 190628Z 17011KT 29/16 A2993 RMK A01 T02890155  RH  044%=      5-min Rain = 0
KCL1 190629Z 17011KT 29/16 A2993 RMK A01 T02890156  RH  044%=      5-min Rain = 0
KCL1 190630Z 17015G20KT 29/16 A2993 RMK A01 T02890156  RH  045%=      5-min Rain = 0
KCL1 190631Z 17011KT 29/16 A2993 RMK A01 T02890156  RH  045%=      5-min Rain = 0
KCL1 190632Z 17011KT 29/16 A2993 RMK A01 T02890156  RH  045%=      5-min Rain = 0
KCL1 190633Z 17011G16KT 29/16 A2993 RMK A01 T02890156  RH  045%=      5-min Rain = 0
KCL1 190634Z 16016KT 29/16 A2993 RMK A01 T02880156  RH  045%=      5-min Rain = 0
KCL1 190635Z 17013KT 29/16 A2993 RMK A01 T02880156  RH  045%=      5-min Rain = 0
KCL1 190636Z 18012KT 29/16 A2993 RMK A01 T02880156  RH  045%=      5-min Rain = 0
KCL1 190637Z 18013KT 29/16 A2993 RMK A01 T02890156  RH  044%=      5-min Rain = 0
KCL1 190638Z 18011KT 29/16 A2993 RMK A01 T02890156  RH  044%=      5-min Rain = 0
KCL1 190639Z 18013KT 29/16 A2993 RMK A01 T02890156  RH  045%=      5-min Rain = 0
KCL1 190640Z 17015KT 29/16 A2993 RMK A01 T02890156  RH  045%=      5-min Rain = 0
KCL1 190641Z 18011KT 29/16 A2993 RMK A01 T02880155  RH  044%=      5-min Rain = 0
KCL1 190642Z 18012KT 29/16 A2993 RMK A01 T02890156  RH  044%=      5-min Rain = 0
KCL1 190643Z 18011KT 29/16 A2993 RMK A01 T02890156  RH  045%=      5-min Rain = 0
KCL1 190644Z 18011KT 29/16 A2993 RMK A01 T02880156  RH  045%=      5-min Rain = 0
KCL1 190645Z 18013G19KT 29/16 A2993 RMK A01 T02880156  RH  045%=      5-min Rain = 0
KCL1 190646Z 17012KT 29/16 A2993 RMK A01 T02880156  RH  045%=      5-min Rain = 0
KCL1 190647Z 18013KT 29/16 A2993 RMK A01 T02880156  RH  045%=      5-min Rain = 0
KCL1 190648Z 18016KT 29/16 A2993 RMK A01 T02880156  RH  045%=      5-min Rain = 0
KCL1 190649Z 18013KT 29/16 A2993 RMK A01 T02870156  RH  045%=      5-min Rain = 0
KCL1 190650Z 17011KT 29/16 A2993 RMK A01 T02880156  RH  045%=      5-min Rain = 0
KCL1 190651Z 17013KT 29/16 A2993 RMK A01 T02880156  RH  045%=      5-min Rain = 0
KCL1 190652Z 17016KT 29/16 A2993 RMK A01 T02880156  RH  045%=      5-min Rain = 0
KCL1 190653Z 17013KT 29/16 A2993 RMK A01 T02880155  RH  045%=      5-min Rain = 0
KCL1 190654Z 16013G18KT 29/16 A2993 RMK A01 T02880156  RH  045%=      5-min Rain = 0
KCL1 190655Z 18009KT 29/16 A2994 RMK A01 T02870156  RH  045%=      5-min Rain = 0
KCL1 190656Z 18010KT 29/16 A2993 RMK A01 T02860156  RH  045%=      5-min Rain = 0
KCL1 190657Z 18013KT 29/16 A2994 RMK A01 T02850156  RH  045%=      5-min Rain = 0
KCL1 190658Z 17009G15KT 29/16 A2994 RMK A01 T02850156  RH  045%=      5-min Rain = 0
KCL1 190659Z 17009KT 29/16 A2994 RMK A01 T02850156  RH  046%=      5-min Rain = 0
KCL1 190700Z 17011KT 28/16 A2994 RMK A01 T02840156  RH  046%=      5-min Rain = 0
KCL1 190701Z 18011KT 28/16 A2994 RMK A01 T02840156  RH  046%=      5-min Rain = 0
KCL1 190702Z 19010KT 28/16 A2994 RMK A01 T02840156  RH  046%=      5-min Rain = 0
KCL1 190703Z 17011KT 28/16 A2994 RMK A01 T02840157  RH  046%=      5-min Rain = 0
KCL1 190704Z 18011KT 28/16 A2994 RMK A01 T02840157  RH  046%=      5-min Rain = 0
KCL1 190705Z 18011KT 28/16 A2994 RMK A01 T02840157  RH  046%=      5-min Rain = 0
KCL1 190706Z 18013KT 28/16 A2994 RMK A01 T02840157  RH  046%=      5-min Rain = 0
KCL1 190707Z 17015KT 28/16 A2994 RMK A01 T02840157  RH  046%=      5-min Rain = 0
KCL1 190708Z 17016KT 29/16 A2994 RMK A01 T02850157  RH  046%=      5-min Rain = 0
KCL1 190709Z 18012KT 29/16 A2994 RMK A01 T02850157  RH  046%=      5-min Rain = 0
KCL1 190710Z 17015KT 29/16 A2994 RMK A01 T02850157  RH  046%=      5-min Rain = 0
KCL1 190711Z 18012G18KT 29/16 A2994 RMK A01 T02850157  RH  046%=      5-min Rain = 0
KCL1 190712Z 18014KT 29/16 A2994 RMK A01 T02850157  RH  046%=      5-min Rain = 0
KCL1 190713Z 18013KT 29/16 A2994 RMK A01 T02850158  RH  046%=      5-min Rain = 0
KCL1 190714Z 17016KT 29/16 A2994 RMK A01 T02850157  RH  046%=      5-min Rain = 0
KCL1 190715Z 17017KT 29/16 A2994 RMK A01 T02850157  RH  046%=      5-min Rain = 0
KCL1 190716Z 17015G20KT 29/16 A2994 RMK A01 T02850157  RH  046%=      5-min Rain = 0
KCL1 190717Z 18010KT 29/16 A2994 RMK A01 T02850158  RH  046%=      5-min Rain = 0
KCL1 190718Z 18010KT 28/16 A2994 RMK A01 T02840158  RH  046%=      5-min Rain = 0
KCL1 190719Z 18009KT 28/16 A2994 RMK A01 T02830157  RH  047%=      5-min Rain = 0
KCL1 190720Z 18009KT 28/16 A2994 RMK A01 T02820157  RH  047%=      5-min Rain = 0
KCL1 190721Z 18009KT 28/16 A2994 RMK A01 T02810158  RH  047%=      5-min Rain = 0
KCL1 190722Z 18012KT 28/16 A2994 RMK A01 T02800157  RH  047%=      5-min Rain = 0
KCL1 190723Z 18011KT 28/16 A2994 RMK A01 T02800157  RH  047%=      5-min Rain = 0
KCL1 190724Z 18010KT 28/16 A2994 RMK A01 T02800157  RH  047%=      5-min Rain = 0
KCL1 190725Z 18009KT 28/16 A2994 RMK A01 T02800157  RH  047%=      5-min Rain = 0
KCL1 190726Z 19012KT 28/16 A2994 RMK A01 T02800157  RH  047%=      5-min Rain = 0
KCL1 190727Z 18011KT 28/16 A2994 RMK A01 T02800157  RH  047%=      5-min Rain = 0
KCL1 190728Z 17012KT 28/16 A2994 RMK A01 T02800157  RH  047%=      5-min Rain = 0
KCL1 190729Z 17010KT 28/16 A2994 RMK A01 T02800157  RH  047%=      5-min Rain = 0
KCL1 190730Z 17011G16KT 28/16 A2994 RMK A01 T02800157  RH  047%=      5-min Rain = 0
KCL1 190731Z 18012KT 28/16 A2994 RMK A01 T02790158  RH  048%=      5-min Rain = 0
KCL1 190732Z 18010KT 28/16 A2994 RMK A01 T02790158  RH  048%=      5-min Rain = 0
KCL1 190733Z 17010KT 28/16 A2994 RMK A01 T02790158  RH  048%=      5-min Rain = 0
KCL1 190734Z 18010KT 28/16 A2994 RMK A01 T02790158  RH  048%=      5-min Rain = 0
KCL1 190735Z 18012KT 28/16 A2994 RMK A01 T02780157  RH  048%=      5-min Rain = 0
KCL1 190736Z 18011KT 28/16 A2994 RMK A01 T02780157  RH  048%=      5-min Rain = 0
KCL1 190737Z 18013G18KT 28/16 A2994 RMK A01 T02780157  RH  048%=      5-min Rain = 0
KCL1 190738Z 17012G17KT 28/16 A2994 RMK A01 T02790157  RH  048%=      5-min Rain = 0
KCL1 190739Z 17011KT 28/16 A2994 RMK A01 T02790158  RH  047%=      5-min Rain = 0
KCL1 190740Z 19011G18KT 28/16 A2994 RMK A01 T02790158  RH  048%=      5-min Rain = 0
KCL1 190741Z 17012G18KT 28/16 A2994 RMK A01 T02780158  RH  048%=      5-min Rain = 0
KCL1 190742Z 18014G19KT 28/16 A2994 RMK A01 T02780158  RH  048%=      5-min Rain = 0
KCL1 190743Z 18012KT 28/16 A2994 RMK A01 T02790158  RH  048%=      5-min Rain = 0
KCL1 190744Z 18009KT 28/16 A2994 RMK A01 T02790158  RH  048%=      5-min Rain = 0
KCL1 190745Z 17009KT 28/16 A2994 RMK A01 T02780158  RH  048%=      5-min Rain = 0
KCL1 190746Z 17010KT 28/16 A2994 RMK A01 T02770158  RH  048%=      5-min Rain = 0
KCL1 190747Z 17010KT 28/16 A2994 RMK A01 T02770158  RH  048%=      5-min Rain = 0
KCL1 190748Z 18008KT 28/16 A2994 RMK A01 T02760157  RH  048%=      5-min Rain = 0
KCL1 190749Z 18011KT 28/16 A2994 RMK A01 T02750158  RH  049%=      5-min Rain = 0
KCL1 190750Z 18014KT 28/16 A2994 RMK A01 T02750157  RH  049%=      5-min Rain = 0
KCL1 190751Z 18011KT 28/16 A2994 RMK A01 T02760158  RH  049%=      5-min Rain = 0
KCL1 190752Z 19016KT 28/16 A2994 RMK A01 T02760158  RH  048%=      5-min Rain = 0
KCL1 190753Z 19015KT 28/16 A2994 RMK A01 T02770158  RH  048%=      5-min Rain = 0
KCL1 190754Z 19012KT 28/16 A2994 RMK A01 T02770157  RH  048%=      5-min Rain = 0
KCL1 190755Z 18012KT 28/16 A2994 RMK A01 T02780158  RH  048%=      5-min Rain = 0
KCL1 190756Z 18012KT 28/16 A2994 RMK A01 T02770158  RH  048%=      5-min Rain = 0
KCL1 190757Z 18012KT 28/16 A2994 RMK A01 T02770158  RH  048%=      5-min Rain = 0
KCL1 190758Z 19009KT 28/16 A2994 RMK A01 T02770158  RH  048%=      5-min Rain = 0
KCL1 190759Z 18009KT 28/16 A2994 RMK A01 T02760158  RH  049%=      5-min Rain = 0
KCL1 190800Z 18012KT 28/16 A2994 RMK A01 T02750158  RH  049%=      5-min Rain = 0
KCL1 190801Z 19013KT 28/16 A2994 RMK A01 T02750158  RH  049%=      5-min Rain = 0
KCL1 190802Z 19012KT 28/16 A2994 RMK A01 T02750158  RH  049%=      5-min Rain = 0
KCL1 190803Z 18013KT 28/16 A2994 RMK A01 T02750158  RH  049%=      5-min Rain = 0
KCL1 190804Z 18013KT 28/16 A2994 RMK A01 T02760158  RH  049%=      5-min Rain = 0
KCL1 190805Z 17014KT 28/16 A2994 RMK A01 T02760158  RH  049%=      5-min Rain = 0
KCL1 190806Z 18010KT 28/16 A2994 RMK A01 T02760158  RH  049%=      5-min Rain = 0
KCL1 190807Z 18015KT 28/16 A2994 RMK A01 T02750158  RH  049%=      5-min Rain = 0
KCL1 190808Z 18011G16KT 28/16 A2994 RMK A01 T02750158  RH  049%=      5-min Rain = 0
KCL1 190809Z 18012KT 28/16 A2994 RMK A01 T02750158  RH  049%=      5-min Rain = 0
KCL1 190810Z 18011KT 27/16 A2994 RMK A01 T02740158  RH  049%=      5-min Rain = 0
KCL1 190811Z 18012G19KT 28/16 A2994 RMK A01 T02750158  RH  049%=      5-min Rain = 0
KCL1 190812Z 18014KT 28/16 A2993 RMK A01 T02750158  RH  049%=      5-min Rain = 0
KCL1 190813Z 19012G18KT 27/16 A2994 RMK A01 T02740158  RH  049%=      5-min Rain = 0
KCL1 190814Z 18013KT 27/16 A2993 RMK A01 T02740158  RH  049%=      5-min Rain = 0
KCL1 190815Z 18012KT 28/16 A2994 RMK A01 T02750158  RH  049%=      5-min Rain = 0
KCL1 190816Z 18015KT 28/16 A2993 RMK A01 T02750158  RH  049%=      5-min Rain = 0
KCL1 190817Z 18013KT 27/16 A2994 RMK A01 T02740158  RH  049%=      5-min Rain = 0
KCL1 190818Z 17010KT 27/16 A2994 RMK A01 T02740158  RH  049%=      5-min Rain = 0
KCL1 190819Z 18014KT 27/16 A2994 RMK A01 T02740159  RH  049%=      5-min Rain = 0
KCL1 190820Z 19015KT 27/16 A2993 RMK A01 T02740158  RH  049%=      5-min Rain = 0
KCL1 190821Z 18012KT 27/16 A2993 RMK A01 T02740158  RH  049%=      5-min Rain = 0
KCL1 190822Z 18012G17KT 27/16 A2994 RMK A01 T02730158  RH  049%=      5-min Rain = 0
KCL1 190823Z 18014G19KT 27/16 A2994 RMK A01 T02730158  RH  050%=      5-min Rain = 0
KCL1 190824Z 18011G16KT 27/16 A2994 RMK A01 T02730158  RH  050%=      5-min Rain = 0
KCL1 190825Z 19014KT 27/16 A2993 RMK A01 T02730158  RH  049%=      5-min Rain = 0
KCL1 190826Z 19013KT 27/16 A2993 RMK A01 T02730158  RH  049%=      5-min Rain = 0
KCL1 190827Z 19012KT 27/16 A2994 RMK A01 T02730158  RH  049%=      5-min Rain = 0
KCL1 190828Z 18013KT 27/16 A2994 RMK A01 T02730158  RH  049%=      5-min Rain = 0
KCL1 190829Z 18014G22KT 27/16 A2993 RMK A01 T02730158  RH  050%=      5-min Rain = 0
KCL1 190830Z 18017KT 27/16 A2993 RMK A01 T02730158  RH  049%=      5-min Rain = 0
KCL1 190831Z 18015KT 27/16 A2993 RMK A01 T02740158  RH  049%=      5-min Rain = 0
KCL1 190832Z 18016KT 27/16 A2993 RMK A01 T02740158  RH  049%=      5-min Rain = 0
KCL1 190833Z 17012KT 27/16 A2993 RMK A01 T02740158  RH  049%=      5-min Rain = 0
KCL1 190834Z 17015KT 27/16 A2993 RMK A01 T02740159  RH  049%=      5-min Rain = 0
KCL1 190835Z 18013KT 27/16 A2994 RMK A01 T02740159  RH  049%=      5-min Rain = 0
KCL1 190836Z 19021KT 27/16 A2993 RMK A01 T02730158  RH  049%=      5-min Rain = 0
KCL1 190837Z 19013G20KT 27/16 A2993 RMK A01 T02740158  RH  049%=      5-min Rain = 0
KCL1 190838Z 18011KT 28/16 A2994 RMK A01 T02750159  RH  049%=      5-min Rain = 0
KCL1 190839Z 19013G19KT 28/16 A2993 RMK A01 T02750159  RH  049%=      5-min Rain = 0
KCL1 190840Z 20014G21KT 27/16 A2993 RMK A01 T02740159  RH  049%=      5-min Rain = 0
KCL1 190841Z 20014KT 27/16 A2993 RMK A01 T02740158  RH  049%=      5-min Rain = 0
KCL1 190842Z 18015KT 27/16 A2994 RMK A01 T02740158  RH  049%=      5-min Rain = 0
KCL1 190843Z 17013G18KT 27/16 A2994 RMK A01 T02740158  RH  049%=      5-min Rain = 0
KCL1 190844Z 18014KT 27/16 A2994 RMK A01 T02740159  RH  049%=      5-min Rain = 0
KCL1 190845Z 18015KT 27/16 A2993 RMK A01 T02730159  RH  049%=      5-min Rain = 0
KCL1 190846Z 18011KT 27/16 A2994 RMK A01 T02740159  RH  049%=      5-min Rain = 0
KCL1 190847Z 18012KT 27/16 A2994 RMK A01 T02740159  RH  049%=      5-min Rain = 0
KCL1 190848Z 18014G21KT 27/16 A2994 RMK A01 T02730158  RH  050%=      5-min Rain = 0
KCL1 190849Z 18016KT 27/16 A2993 RMK A01 T02730158  RH  050%=      5-min Rain = 0
KCL1 190850Z 18020G27KT 27/16 A2993 RMK A01 T02730158  RH  050%=      5-min Rain = 0
KCL1 190851Z 17020G26KT 27/16 A2993 RMK A01 T02730158  RH  049%=      5-min Rain = 0
KCL1 190852Z 18013KT 27/16 A2994 RMK A01 T02740158  RH  049%=      5-min Rain = 0
KCL1 190853Z 18013KT 27/16 A2994 RMK A01 T02740159  RH  049%=      5-min Rain = 0
KCL1 190854Z 18014KT 27/16 A2993 RMK A01 T02730159  RH  050%=      5-min Rain = 0
KCL1 190855Z 19013KT 27/16 A2994 RMK A01 T02730159  RH  050%=      5-min Rain = 0
KCL1 190856Z 18013G19KT 27/16 A2994 RMK A01 T02730158  RH  050%=      5-min Rain = 0
KCL1 190857Z 18012KT 27/16 A2994 RMK A01 T02730159  RH  050%=      5-min Rain = 0
KCL1 190858Z 19014KT 27/16 A2994 RMK A01 T02730158  RH  050%=      5-min Rain = 0
KCL1 190859Z 19015KT 27/16 A2994 RMK A01 T02730158  RH  050%=      5-min Rain = 0
KCL1 190900Z 18014KT 27/16 A2994 RMK A01 T02730158  RH  050%=      5-min Rain = 0
KCL1 190901Z 18014KT 27/16 A2994 RMK A01 T02720158  RH  049%=      5-min Rain = 0
KCL1 190902Z 19014G19KT 27/16 A2994 RMK A01 T02730158  RH  049%=      5-min Rain = 0
KCL1 190903Z 19014KT 27/16 A2994 RMK A01 T02730158  RH  050%=      5-min Rain = 0
KCL1 190904Z 19014KT 27/16 A2994 RMK A01 T02730158  RH  050%=      5-min Rain = 0
KCL1 190905Z 19013KT 27/16 A2994 RMK A01 T02720158  RH  050%=      5-min Rain = 0
KCL1 190906Z 19014G19KT 27/16 A2994 RMK A01 T02720158  RH  050%=      5-min Rain = 0
KCL1 190907Z 19014KT 27/16 A2993 RMK A01 T02720157  RH  049%=      5-min Rain = 0
KCL1 190908Z 19014KT 27/16 A2994 RMK A01 T02730158  RH  049%=      5-min Rain = 0
KCL1 190909Z 19013KT 27/16 A2994 RMK A01 T02730157  RH  049%=      5-min Rain = 0
KCL1 190910Z 18012KT 27/16 A2994 RMK A01 T02730157  RH  049%=      5-min Rain = 0
KCL1 190911Z 18015G21KT 27/16 A2994 RMK A01 T02730157  RH  049%=      5-min Rain = 0
KCL1 190912Z 19014G19KT 27/16 A2994 RMK A01 T02730157  RH  049%=      5-min Rain = 0
KCL1 190913Z 18015G22KT 27/16 A2994 RMK A01 T02730156  RH  049%=      5-min Rain = 0
KCL1 190914Z 19012G17KT 27/16 A2994 RMK A01 T02730156  RH  049%=      5-min Rain = 0
KCL1 190915Z 19014KT 27/16 A2994 RMK A01 T02720156  RH  049%=      5-min Rain = 0
KCL1 190916Z 19013G20KT 27/16 A2994 RMK A01 T02720156  RH  049%=      5-min Rain = 0
KCL1 190917Z 19015G20KT 27/16 A2993 RMK A01 T02720156  RH  049%=      5-min Rain = 0
KCL1 190918Z 20017G23KT 27/16 A2993 RMK A01 T02720155  RH  049%=      5-min Rain = 0
KCL1 190919Z 19014KT 27/16 A2994 RMK A01 T02730155  RH  049%=      5-min Rain = 0
KCL1 190920Z 20014G19KT 27/16 A2994 RMK A01 T02730156  RH  049%=      5-min Rain = 0
KCL1 190921Z 19012G17KT 27/16 A2994 RMK A01 T02730155  RH  049%=      5-min Rain = 0
KCL1 190922Z 19011KT 27/16 A2994 RMK A01 T02730155  RH  048%=      5-min Rain = 0
KCL1 190923Z 19012KT 27/16 A2994 RMK A01 T02730155  RH  049%=      5-min Rain = 0
KCL1 190924Z 18012KT 27/16 A2994 RMK A01 T02720155  RH  049%=      5-min Rain = 0
KCL1 190925Z 19017G22KT 27/15 A2993 RMK A01 T02710154  RH  049%=      5-min Rain = 0
KCL1 190926Z 20016G24KT 27/15 A2993 RMK A01 T02720154  RH  048%=      5-min Rain = 0
KCL1 190927Z 20015G21KT 27/15 A2993 RMK A01 T02730154  RH  048%=      5-min Rain = 0
KCL1 190928Z 19013KT 27/15 A2993 RMK A01 T02730154  RH  048%=      5-min Rain = 0
KCL1 190929Z 19011KT 27/15 A2994 RMK A01 T02730154  RH  048%=      5-min Rain = 0
KCL1 190930Z 19014KT 27/15 A2993 RMK A01 T02720154  RH  048%=      5-min Rain = 0
KCL1 190931Z 19010KT 27/15 A2994 RMK A01 T02720154  RH  048%=      5-min Rain = 0
KCL1 190932Z 19009KT 27/15 A2994 RMK A01 T02720154  RH  048%=      5-min Rain = 0
KCL1 190933Z 19016G22KT 27/15 A2993 RMK A01 T02710154  RH  049%=      5-min Rain = 0
KCL1 190934Z 19017KT 27/15 A2993 RMK A01 T02710152  RH  048%=      5-min Rain = 0
KCL1 190935Z 20017KT 27/15 A2993 RMK A01 T02720153  RH  048%=      5-min Rain = 0
KCL1 190936Z 20014KT 27/15 A2993 RMK A01 T02720152  RH  048%=      5-min Rain = 0
KCL1 190937Z 20015G21KT 27/15 A2993 RMK A01 T02720152  RH  048%=      5-min Rain = 0
KCL1 190938Z 20011G16KT 27/15 A2994 RMK A01 T02730152  RH  048%=      5-min Rain = 0
KCL1 190939Z 19012KT 27/15 A2994 RMK A01 T02730152  RH  048%=      5-min Rain = 0
KCL1 190940Z 20014KT 27/15 A2993 RMK A01 T02730152  RH  048%=      5-min Rain = 0
KCL1 190941Z 18015KT 27/15 A2994 RMK A01 T02720152  RH  048%=      5-min Rain = 0
KCL1 190942Z 21013G18KT 27/15 A2993 RMK A01 T02720151  RH  048%=      5-min Rain = 0
KCL1 190943Z 20016KT 27/15 A2993 RMK A01 T02720152  RH  048%=      5-min Rain = 0
KCL1 190944Z 19016G23KT 27/15 A2993 RMK A01 T02720151  RH  048%=      5-min Rain = 0
KCL1 190945Z 19009G15KT 27/15 A2994 RMK A01 T02720151  RH  048%=      5-min Rain = 0
KCL1 190946Z 20013KT 27/15 A2994 RMK A01 T02720151  RH  048%=      5-min Rain = 0
KCL1 190947Z 20016G21KT 27/15 A2993 RMK A01 T02710151  RH  048%=      5-min Rain = 0
KCL1 190948Z 19014KT 27/15 A2994 RMK A01 T02710151  RH  048%=      5-min Rain = 0
KCL1 190949Z 18014G21KT 27/15 A2994 RMK A01 T02710151  RH  048%=      5-min Rain = 0
KCL1 190950Z 19012KT 27/15 A2994 RMK A01 T02710151  RH  048%=      5-min Rain = 0
KCL1 190951Z 19011G17KT 27/15 A2994 RMK A01 T02710151  RH  048%=      5-min Rain = 0
KCL1 190952Z 20011G16KT 27/15 A2994 RMK A01 T02700151  RH  048%=      5-min Rain = 0
KCL1 190953Z 20011G16KT 27/15 A2994 RMK A01 T02700150  RH  048%=      5-min Rain = 0
KCL1 190954Z 18015KT 27/15 A2993 RMK A01 T02700150  RH  048%=      5-min Rain = 0
KCL1 190955Z 18011G16KT 27/15 A2994 RMK A01 T02700150  RH  048%=      5-min Rain = 0
KCL1 190956Z 18011KT 27/15 A2994 RMK A01 T02710150  RH  048%=      5-min Rain = 0
KCL1 190957Z 20011KT 27/15 A2994 RMK A01 T02700150  RH  048%=      5-min Rain = 0
KCL1 190958Z 19014KT 27/15 A2993 RMK A01 T02700150  RH  048%=      5-min Rain = 0
KCL1 190959Z 19014KT 27/15 A2994 RMK A01 T02710149  RH  047%=      5-min Rain = 0
KCL1 191000Z 19013G18KT 27/15 A2994 RMK A01 T02700148  RH  047%=      5-min Rain = 0
KCL1 191001Z 20015KT 27/15 A2994 RMK A01 T02710149  RH  047%=      5-min Rain = 0
KCL1 191002Z 19013KT 27/15 A2994 RMK A01 T02710149  RH  047%=      5-min Rain = 0
KCL1 191003Z 19010KT 27/15 A2994 RMK A01 T02710149  RH  047%=      5-min Rain = 0
KCL1 191004Z 20009G14KT 27/15 A2994 RMK A01 T02700149  RH  047%=      5-min Rain = 0
KCL1 191005Z 20012KT 27/15 A2994 RMK A01 T02700149  RH  047%=      5-min Rain = 0
KCL1 191006Z 19014KT 27/15 A2994 RMK A01 T02700148  RH  047%=      5-min Rain = 0
KCL1 191007Z 19012KT 27/15 A2994 RMK A01 T02700148  RH  047%=      5-min Rain = 0
KCL1 191008Z 19010KT 27/15 A2994 RMK A01 T02700148  RH  047%=      5-min Rain = 0
KCL1 191009Z 18010G15KT 27/15 A2994 RMK A01 T02700148  RH  047%=      5-min Rain = 0
KCL1 191010Z 19014KT 27/15 A2994 RMK A01 T02700148  RH  047%=      5-min Rain = 0
KCL1 191011Z 19010KT 27/15 A2994 RMK A01 T02690148  RH  047%=      5-min Rain = 0
KCL1 191012Z 18013G19KT 27/15 A2994 RMK A01 T02690147  RH  047%=      5-min Rain = 0
KCL1 191013Z 19012G17KT 27/15 A2994 RMK A01 T02690147  RH  047%=      5-min Rain = 0
KCL1 191014Z 19009KT 27/15 A2994 RMK A01 T02690147  RH  047%=      5-min Rain = 0
KCL1 191015Z 20009KT 27/15 A2994 RMK A01 T02690147  RH  047%=      5-min Rain = 0
KCL1 191016Z 19015G21KT 27/15 A2993 RMK A01 T02680147  RH  047%=      5-min Rain = 0
KCL1 191017Z 20014KT 27/15 A2993 RMK A01 T02680147  RH  047%=      5-min Rain = 0
KCL1 191018Z 19013KT 27/15 A2994 RMK A01 T02690147  RH  047%=      5-min Rain = 0
KCL1 191019Z 20012KT 27/15 A2994 RMK A01 T02690147  RH  047%=      5-min Rain = 0
KCL1 191020Z 19013G18KT 27/15 A2993 RMK A01 T02690147  RH  047%=      5-min Rain = 0
KCL1 191021Z 19017KT 27/15 A2994 RMK A01 T02690146  RH  047%=      5-min Rain = 0
KCL1 191022Z 19015KT 27/15 A2993 RMK A01 T02690146  RH  047%=      5-min Rain = 0
KCL1 191023Z 19015KT 27/15 A2993 RMK A01 T02690146  RH  047%=      5-min Rain = 0
KCL1 191024Z 18014G21KT 27/15 A2993 RMK A01 T02690145  RH  047%=      5-min Rain = 0
KCL1 191025Z 18015KT 27/15 A2993 RMK A01 T02690145  RH  047%=      5-min Rain = 0
KCL1 191026Z 18017KT 27/15 A2993 RMK A01 T02690146  RH  047%=      5-min Rain = 0
KCL1 191027Z 20013G18KT 27/15 A2994 RMK A01 T02690145  RH  047%=      5-min Rain = 0
KCL1 191028Z 19011KT 27/15 A2994 RMK A01 T02690145  RH  047%=      5-min Rain = 0
KCL1 191029Z 19009KT 27/15 A2994 RMK A01 T02680145  RH  047%=      5-min Rain = 0
KCL1 191030Z 19013KT 27/15 A2994 RMK A01 T02680145  RH  047%=      5-min Rain = 0
KCL1 191031Z 18013G19KT 27/15 A2993 RMK A01 T02680145  RH  047%=      5-min Rain = 0
KCL1 191032Z 18017G24KT 27/15 A2993 RMK A01 T02680145  RH  047%=      5-min Rain = 0
KCL1 191033Z 19021KT 27/14 A2993 RMK A01 T02680144  RH  046%=      5-min Rain = 0
KCL1 191034Z 20016KT 27/14 A2993 RMK A01 T02690144  RH  046%=      5-min Rain = 0
KCL1 191035Z 19019G25KT 27/14 A2993 RMK A01 T02690143  RH  046%=      5-min Rain = 0
KCL1 191036Z 19014G22KT 27/14 A2993 RMK A01 T02690143  RH  046%=      5-min Rain = 0
KCL1 191037Z 19013G21KT 27/14 A2994 RMK A01 T02690143  RH  046%=      5-min Rain = 0
KCL1 191038Z 19012G18KT 27/14 A2994 RMK A01 T02690143  RH  046%=      5-min Rain = 0
KCL1 191039Z 19009G14KT 27/14 A2994 RMK A01 T02680143  RH  046%=      5-min Rain = 0
KCL1 191040Z 20011KT 27/14 A2994 RMK A01 T02680143  RH  046%=      5-min Rain = 0
KCL1 191041Z 19015G23KT 27/14 A2994 RMK A01 T02670143  RH  046%=      5-min Rain = 0
KCL1 191042Z 18015KT 27/14 A2994 RMK A01 T02670143  RH  046%=      5-min Rain = 0
KCL1 191043Z 17014KT 27/14 A2994 RMK A01 T02680143  RH  046%=      5-min Rain = 0
KCL1 191044Z 19011G16KT 27/14 A2994 RMK A01 T02670143  RH  046%=      5-min Rain = 0
KCL1 191045Z 19014G19KT 27/14 A2994 RMK A01 T02670143  RH  046%=      5-min Rain = 0
KCL1 191046Z 19013G18KT 27/14 A2994 RMK A01 T02670143  RH  046%=      5-min Rain = 0
KCL1 191047Z 19010KT 27/14 A2994 RMK A01 T02670143  RH  046%=      5-min Rain = 0
KCL1 191048Z 18010KT 27/14 A2994 RMK A01 T02670143  RH  046%=      5-min Rain = 0
KCL1 191049Z 19012KT 27/14 A2994 RMK A01 T02670143  RH  046%=      5-min Rain = 0
KCL1 191050Z 18017G22KT 27/14 A2994 RMK A01 T02660142  RH  046%=      5-min Rain = 0
KCL1 191051Z 19016KT 27/14 A2994 RMK A01 T02670142  RH  046%=      5-min Rain = 0
KCL1 191052Z 18015KT 27/14 A2994 RMK A01 T02670142  RH  046%=      5-min Rain = 0
KCL1 191053Z 18013G18KT 27/14 A2994 RMK A01 T02670142  RH  046%=      5-min Rain = 0
KCL1 191054Z 18015KT 27/14 A2994 RMK A01 T02670142  RH  046%=      5-min Rain = 0
KCL1 191055Z 20011G16KT 27/14 A2994 RMK A01 T02670143  RH  046%=      5-min Rain = 0
KCL1 191056Z 18008G13KT 27/14 A2994 RMK A01 T02670143  RH  046%=      5-min Rain = 0
KCL1 191057Z 19013G18KT 27/14 A2994 RMK A01 T02660142  RH  047%=      5-min Rain = 0
KCL1 191058Z 18015KT 27/14 A2994 RMK A01 T02650142  RH  047%=      5-min Rain = 0
KCL1 191059Z 18014KT 27/14 A2994 RMK A01 T02650142  RH  047%=      5-min Rain = 0
KCL1 191100Z 18013KT 27/14 A2994 RMK A01 T02650143  RH  047%=      5-min Rain = 0
KCL1 191101Z 19018KT 27/14 A2994 RMK A01 T02650142  RH  047%=      5-min Rain = 0
KCL1 191102Z 19015G20KT 27/14 A2994 RMK A01 T02650142  RH  047%=      5-min Rain = 0
KCL1 191103Z 19015G20KT 27/14 A2994 RMK A01 T02660143  RH  047%=      5-min Rain = 0
KCL1 191104Z 19011KT 27/14 A2994 RMK A01 T02660143  RH  047%=      5-min Rain = 0
KCL1 191105Z 20016G22KT 27/14 A2994 RMK A01 T02660142  RH  047%=      5-min Rain = 0
KCL1 191106Z 20012KT 27/14 A2994 RMK A01 T02650142  RH  047%=      5-min Rain = 0
KCL1 191107Z 20015G20KT 27/14 A2994 RMK A01 T02660142  RH  047%=      5-min Rain = 0
KCL1 191108Z 20014KT 27/14 A2994 RMK A01 T02660143  RH  047%=      5-min Rain = 0
KCL1 191109Z 19014KT 27/14 A2994 RMK A01 T02660142  RH  047%=      5-min Rain = 0
KCL1 191110Z 19014G19KT 27/14 A2994 RMK A01 T02660142  RH  047%=      5-min Rain = 0
KCL1 191111Z 18010KT 27/14 A2994 RMK A01 T02650142  RH  047%=      5-min Rain = 0
KCL1 191112Z 19010KT 27/14 A2994 RMK A01 T02650142  RH  047%=      5-min Rain = 0
KCL1 191113Z 18013KT 26/14 A2994 RMK A01 T02640142  RH  047%=      5-min Rain = 0
KCL1 191114Z 18012KT 26/14 A2994 RMK A01 T02640142  RH  047%=      5-min Rain = 0
KCL1 191115Z 18010KT 26/14 A2994 RMK A01 T02640142  RH  047%=      5-min Rain = 0
KCL1 191116Z 19011KT 26/14 A2994 RMK A01 T02630142  RH  047%=      5-min Rain = 0
KCL1 191117Z 19011KT 26/14 A2994 RMK A01 T02630142  RH  047%=      5-min Rain = 0
KCL1 191118Z 19016KT 26/14 A2994 RMK A01 T02630142  RH  047%=      5-min Rain = 0
KCL1 191119Z 19011G16KT 26/14 A2994 RMK A01 T02640142  RH  047%=      5-min Rain = 0
KCL1 191120Z 18010G15KT 26/14 A2994 RMK A01 T02640142  RH  047%=      5-min Rain = 0
KCL1 191121Z 19012G18KT 26/14 A2994 RMK A01 T02640142  RH  047%=      5-min Rain = 0
KCL1 191122Z 19012G17KT 26/14 A2994 RMK A01 T02630142  RH  047%=      5-min Rain = 0
KCL1 191123Z 19011KT 26/14 A2994 RMK A01 T02630142  RH  047%=      5-min Rain = 0
KCL1 191124Z 19010KT 26/14 A2994 RMK A01 T02630142  RH  047%=      5-min Rain = 0
KCL1 191125Z 19012G23KT 26/14 A2994 RMK A01 T02630142  RH  047%=      5-min Rain = 0
KCL1 191126Z 20017G25KT 26/14 A2994 RMK A01 T02630141  RH  047%=      5-min Rain = 0
KCL1 191127Z 19012KT 26/14 A2994 RMK A01 T02640142  RH  047%=      5-min Rain = 0
KCL1 191128Z 20013KT 26/14 A2994 RMK A01 T02640141  RH  047%=      5-min Rain = 0
KCL1 191129Z 19013G18KT 27/14 A2994 RMK A01 T02650141  RH  047%=      5-min Rain = 0
KCL1 191130Z 19009G14KT 26/14 A2995 RMK A01 T02640141  RH  047%=      5-min Rain = 0
KCL1 191131Z 19010KT 26/14 A2995 RMK A01 T02640141  RH  047%=      5-min Rain = 0
KCL1 191132Z 20009KT 26/14 A2995 RMK A01 T02630141  RH  047%=      5-min Rain = 0
KCL1 191133Z 20012G17KT 26/14 A2995 RMK A01 T02630141  RH  047%=      5-min Rain = 0
KCL1 191134Z 18011KT 26/14 A2995 RMK A01 T02630141  RH  047%=      5-min Rain = 0
KCL1 191135Z 19013KT 26/14 A2995 RMK A01 T02630141  RH  047%=      5-min Rain = 0
KCL1 191136Z 20013G18KT 26/14 A2995 RMK A01 T02630140  RH  047%=      5-min Rain = 0
KCL1 191137Z 19011G16KT 26/14 A2995 RMK A01 T02630140  RH  047%=      5-min Rain = 0
KCL1 191138Z 18008KT 26/14 A2995 RMK A01 T02630141  RH  047%=      5-min Rain = 0
KCL1 191139Z 19006KT 26/14 A2995 RMK A01 T02630141  RH  047%=      5-min Rain = 0
KCL1 191140Z 20009KT 26/14 A2995 RMK A01 T02620141  RH  047%=      5-min Rain = 0
KCL1 191141Z 19010KT 26/14 A2995 RMK A01 T02620141  RH  047%=      5-min Rain = 0
KCL1 191142Z 19009KT 26/14 A2995 RMK A01 T02620141  RH  047%=      5-min Rain = 0
KCL1 191143Z 20010KT 26/14 A2995 RMK A01 T02620140  RH  047%=      5-min Rain = 0
KCL1 191144Z 19009G15KT 26/14 A2995 RMK A01 T02610140  RH  047%=      5-min Rain = 0
KCL1 191145Z 19011KT 26/14 A2995 RMK A01 T02610140  RH  047%=      5-min Rain = 0
KCL1 191146Z 20010KT 26/14 A2995 RMK A01 T02610140  RH  047%=      5-min Rain = 0
KCL1 191147Z 20009G14KT 26/14 A2995 RMK A01 T02610140  RH  047%=      5-min Rain = 0
KCL1 191148Z 19014G19KT 26/14 A2995 RMK A01 T02610139  RH  047%=      5-min Rain = 0
KCL1 191149Z 19015KT 26/14 A2995 RMK A01 T02620140  RH  047%=      5-min Rain = 0
KCL1 191150Z 18011KT 26/14 A2995 RMK A01 T02620140  RH  047%=      5-min Rain = 0
KCL1 191151Z 18012G18KT 26/14 A2995 RMK A01 T02620140  RH  047%=      5-min Rain = 0
KCL1 191152Z 19016KT 26/14 A2995 RMK A01 T02620140  RH  047%=      5-min Rain = 0
KCL1 191153Z 20014KT 26/14 A2995 RMK A01 T02620140  RH  047%=      5-min Rain = 0
KCL1 191154Z 18014KT 26/14 A2995 RMK A01 T02630139  RH  047%=      5-min Rain = 0
KCL1 191155Z 19008KT 26/14 A2995 RMK A01 T02630140  RH  047%=      5-min Rain = 0
KCL1 191156Z 19009KT 26/14 A2995 RMK A01 T02630140  RH  047%=      5-min Rain = 0
KCL1 191157Z 20011KT 26/14 A2995 RMK A01 T02630140  RH  047%=      5-min Rain = 0
KCL1 191158Z 19009KT 26/14 A2995 RMK A01 T02620140  RH  047%=      5-min Rain = 0
KCL1 191159Z 20005KT 26/14 A2995 RMK A01 T02620140  RH  047%=      5-min Rain = 0
KCL1 191200Z 18008KT 26/14 A2995 RMK A01 T02620140  RH  047%=      5-min Rain = 0
KCL1 191201Z 19008KT 26/14 A2995 RMK A01 T02620140  RH  047%=      5-min Rain = 0
KCL1 191202Z 19008KT 26/14 A2995 RMK A01 T02620140  RH  047%=      5-min Rain = 0
KCL1 191203Z 18014G20KT 26/14 A2995 RMK A01 T02620140  RH  047%=      5-min Rain = 0
KCL1 191204Z 18015KT 26/14 A2995 RMK A01 T02620140  RH  047%=      5-min Rain = 0
KCL1 191205Z 19012KT 26/14 A2995 RMK A01 T02620139  RH  047%=      5-min Rain = 0
KCL1 191206Z 20014KT 26/14 A2995 RMK A01 T02620139  RH  047%=      5-min Rain = 0
KCL1 191207Z 19011KT 26/14 A2995 RMK A01 T02630140  RH  047%=      5-min Rain = 0
KCL1 191208Z 18010KT 26/14 A2995 RMK A01 T02630140  RH  047%=      5-min Rain = 0
KCL1 191209Z 18011KT 26/14 A2995 RMK A01 T02630140  RH  047%=      5-min Rain = 0
KCL1 191210Z 18010KT 26/14 A2995 RMK A01 T02620140  RH  047%=      5-min Rain = 0
KCL1 191211Z 18014KT 26/14 A2995 RMK A01 T02620140  RH  047%=      5-min Rain = 0
KCL1 191212Z 18014KT 26/14 A2995 RMK A01 T02610139  RH  047%=      5-min Rain = 0
KCL1 191213Z 18011KT 26/14 A2995 RMK A01 T02620140  RH  047%=      5-min Rain = 0
KCL1 191214Z 18011KT 26/14 A2995 RMK A01 T02620140  RH  047%=      5-min Rain = 0
KCL1 191215Z 19011KT 26/14 A2995 RMK A01 T02620140  RH  047%=      5-min Rain = 0
KCL1 191216Z 18012G17KT 26/14 A2995 RMK A01 T02620140  RH  047%=      5-min Rain = 0
KCL1 191217Z 17013KT 26/14 A2995 RMK A01 T02620140  RH  047%=      5-min Rain = 0
KCL1 191218Z 18013KT 26/14 A2995 RMK A01 T02620140  RH  047%=      5-min Rain = 0
KCL1 191219Z 20012KT 26/14 A2995 RMK A01 T02620140  RH  047%=      5-min Rain = 0
KCL1 191220Z 19013KT 26/14 A2995 RMK A01 T02620139  RH  047%=      5-min Rain = 0
KCL1 191221Z 19012KT 26/14 A2995 RMK A01 T02630140  RH  047%=      5-min Rain = 0
KCL1 191222Z 17010KT 26/14 A2995 RMK A01 T02620140  RH  047%=      5-min Rain = 0
KCL1 191223Z 19010KT 26/14 A2995 RMK A01 T02620141  RH  047%=      5-min Rain = 0
KCL1 191224Z 19007KT 26/14 A2995 RMK A01 T02610140  RH  047%=      5-min Rain = 0
KCL1 191225Z 19011KT 26/14 A2995 RMK A01 T02610141  RH  047%=      5-min Rain = 0
KCL1 191226Z 19015KT 26/14 A2995 RMK A01 T02610140  RH  047%=      5-min Rain = 0
KCL1 191227Z 18011KT 26/14 A2995 RMK A01 T02620140  RH  047%=      5-min Rain = 0
KCL1 191228Z 18011KT 26/14 A2995 RMK A01 T02620140  RH  047%=      5-min Rain = 0
KCL1 191229Z 18012KT 26/14 A2995 RMK A01 T02620140  RH  047%=      5-min Rain = 0
KCL1 191230Z 19009KT 26/14 A2995 RMK A01 T02610140  RH  047%=      5-min Rain = 0
KCL1 191231Z 20007KT 26/14 A2995 RMK A01 T02620140  RH  047%=      5-min Rain = 0
KCL1 191232Z 20007KT 26/14 A2995 RMK A01 T02620140  RH  047%=      5-min Rain = 0
KCL1 191233Z 20009KT 26/14 A2995 RMK A01 T02620141  RH  047%=      5-min Rain = 0
KCL1 191234Z 19012G18KT 26/14 A2995 RMK A01 T02620140  RH  047%=      5-min Rain = 0
KCL1 191235Z 19015KT 26/14 A2995 RMK A01 T02620140  RH  047%=      5-min Rain = 0
KCL1 191236Z 21011G16KT 26/14 A2995 RMK A01 T02620140  RH  047%=      5-min Rain = 0
KCL1 191237Z 18009G14KT 26/14 A2995 RMK A01 T02630140  RH  047%=      5-min Rain = 0
KCL1 191238Z 19014G19KT 26/14 A2995 RMK A01 T02630141  RH  047%=      5-min Rain = 0
KCL1 191239Z 19013KT 26/14 A2995 RMK A01 T02630140  RH  047%=      5-min Rain = 0
KCL1 191240Z 19012G19KT 26/14 A2995 RMK A01 T02630140  RH  047%=      5-min Rain = 0
KCL1 191241Z 20012KT 26/14 A2995 RMK A01 T02630140  RH  047%=      5-min Rain = 0
KCL1 191242Z 19011KT 26/14 A2995 RMK A01 T02630141  RH  047%=      5-min Rain = 0
KCL1 191243Z 20012KT 26/14 A2995 RMK A01 T02640140  RH  047%=      5-min Rain = 0
KCL1 191244Z 19013KT 26/14 A2995 RMK A01 T02640140  RH  047%=      5-min Rain = 0
KCL1 191245Z 20011KT 26/14 A2995 RMK A01 T02630140  RH  047%=      5-min Rain = 0
KCL1 191246Z 20008KT 26/14 A2995 RMK A01 T02640141  RH  047%=      5-min Rain = 0
KCL1 191247Z 19008KT 26/14 A2995 RMK A01 T02630141  RH  047%=      5-min Rain = 0
KCL1 191248Z 20013KT 26/14 A2995 RMK A01 T02640141  RH  047%=      5-min Rain = 0
KCL1 191249Z 19012KT 26/14 A2995 RMK A01 T02640141  RH  047%=      5-min Rain = 0
KCL1 191250Z 20010KT 26/14 A2995 RMK A01 T02630141  RH  047%=      5-min Rain = 0
KCL1 191251Z 19011G16KT 26/14 A2995 RMK A01 T02630141  RH  047%=      5-min Rain = 0
KCL1 191252Z 18013KT 26/14 A2995 RMK A01 T02640141  RH  047%=      5-min Rain = 0
KCL1 191253Z 20011G17KT 26/14 A2995 RMK A01 T02640141  RH  047%=      5-min Rain = 0
KCL1 191254Z 20013KT 26/14 A2995 RMK A01 T02640141  RH  047%=      5-min Rain = 0
KCL1 191255Z 20013KT 26/14 A2995 RMK A01 T02640141  RH  047%=      5-min Rain = 0
KCL1 191256Z 19014KT 26/14 A2995 RMK A01 T02640141  RH  047%=      5-min Rain = 0
KCL1 191257Z 19010KT 26/14 A2995 RMK A01 T02640141  RH  047%=      5-min Rain = 0
KCL1 191258Z 19012KT 26/14 A2995 RMK A01 T02640142  RH  047%=      5-min Rain = 0
KCL1 191259Z 18015KT 26/14 A2995 RMK A01 T02640142  RH  047%=      5-min Rain = 0
KCL1 191300Z 19015KT 26/14 A2995 RMK A01 T02640142  RH  047%=      5-min Rain = 0
KCL1 191301Z 20011KT 26/14 A2995 RMK A01 T02640141  RH  047%=      5-min Rain = 0
KCL1 191302Z 20008KT 26/14 A2995 RMK A01 T02630142  RH  047%=      5-min Rain = 0
KCL1 191303Z 19010G15KT 26/14 A2995 RMK A01 T02640142  RH  047%=      5-min Rain = 0
KCL1 191304Z 20011G16KT 26/14 A2995 RMK A01 T02640142  RH  047%=      5-min Rain = 0
KCL1 191305Z 19009G15KT 26/14 A2995 RMK A01 T02640142  RH  047%=      5-min Rain = 0
KCL1 191306Z 19010KT 26/14 A2995 RMK A01 T02640143  RH  047%=      5-min Rain = 0
KCL1 191307Z 19009G14KT 26/14 A2995 RMK A01 T02640143  RH  047%=      5-min Rain = 0
KCL1 191308Z 18010KT 26/14 A2995 RMK A01 T02640143  RH  047%=      5-min Rain = 0
KCL1 191309Z 20009KT 26/14 A2995 RMK A01 T02640142  RH  047%=      5-min Rain = 0
KCL1 191310Z 19012G17KT 26/14 A2995 RMK A01 T02640143  RH  047%=      5-min Rain = 0
KCL1 191311Z 19011KT 26/14 A2995 RMK A01 T02640143  RH  047%=      5-min Rain = 0
KCL1 191312Z 19012G17KT 26/14 A2995 RMK A01 T02640142  RH  047%=      5-min Rain = 0
KCL1 191313Z 20014KT 26/14 A2995 RMK A01 T02640142  RH  047%=      5-min Rain = 0
KCL1 191314Z 19014G21KT 26/14 A2995 RMK A01 T02640142  RH  047%=      5-min Rain = 0
KCL1 191315Z 20012KT 27/14 A2995 RMK A01 T02650143  RH  047%=      5-min Rain = 0
KCL1 191316Z 19014KT 27/14 A2995 RMK A01 T02650143  RH  047%=      5-min Rain = 0
KCL1 191317Z 20010G17KT 26/14 A2995 RMK A01 T02640142  RH  047%=      5-min Rain = 0
KCL1 191318Z 20011KT 26/14 A2995 RMK A01 T02640142  RH  047%=      5-min Rain = 0
KCL1 191319Z 20011G16KT 26/14 A2995 RMK A01 T02640143  RH  047%=      5-min Rain = 0
KCL1 191320Z 21009KT 27/14 A2995 RMK A01 T02650142  RH  047%=      5-min Rain = 0
KCL1 191321Z 20009KT 27/14 A2995 RMK A01 T02650143  RH  047%=      5-min Rain = 0
KCL1 191322Z 18011KT 27/14 A2995 RMK A01 T02650143  RH  047%=      5-min Rain = 0
KCL1 191323Z 20014KT 27/14 A2995 RMK A01 T02650143  RH  047%=      5-min Rain = 0
KCL1 191324Z 20015KT 27/14 A2995 RMK A01 T02650142  RH  047%=      5-min Rain = 0
KCL1 191325Z 20014KT 27/14 A2995 RMK A01 T02650142  RH  047%=      5-min Rain = 0
KCL1 191326Z 19013KT 27/14 A2995 RMK A01 T02660143  RH  047%=      5-min Rain = 0
KCL1 191327Z 19012G18KT 27/14 A2995 RMK A01 T02660143  RH  047%=      5-min Rain = 0
KCL1 191328Z 19011KT 27/14 A2995 RMK A01 T02660143  RH  047%=      5-min Rain = 0
KCL1 191329Z 19008KT 27/14 A2996 RMK A01 T02670144  RH  047%=      5-min Rain = 0
KCL1 191330Z 18011KT 27/14 A2996 RMK A01 T02680144  RH  047%=      5-min Rain = 0
KCL1 191331Z 19007G12KT 27/14 A2996 RMK A01 T02680144  RH  047%=      5-min Rain = 0
KCL1 191332Z 19012G18KT 27/14 A2996 RMK A01 T02680144  RH  047%=      5-min Rain = 0
KCL1 191333Z 19013KT 27/14 A2996 RMK A01 T02680144  RH  047%=      5-min Rain = 0
KCL1 191334Z 19010G15KT 27/14 A2996 RMK A01 T02690144  RH  046%=      5-min Rain = 0
KCL1 191335Z 17009KT 27/15 A2996 RMK A01 T02690145  RH  047%=      5-min Rain = 0
KCL1 191336Z 18010KT 27/15 A2996 RMK A01 T02690146  RH  047%=      5-min Rain = 0
KCL1 191337Z 20008KT 27/15 A2996 RMK A01 T02700145  RH  046%=      5-min Rain = 0
KCL1 191338Z 20008KT 27/15 A2996 RMK A01 T02700145  RH  046%=      5-min Rain = 0
KCL1 191339Z 19013G19KT 27/15 A2996 RMK A01 T02700145  RH  046%=      5-min Rain = 0
KCL1 191340Z 19010KT 27/15 A2996 RMK A01 T02700145  RH  046%=      5-min Rain = 0
KCL1 191341Z 18008KT 27/15 A2996 RMK A01 T02700146  RH  046%=      5-min Rain = 0
KCL1 191342Z 18008KT 27/15 A2996 RMK A01 T02710147  RH  046%=      5-min Rain = 0
KCL1 191343Z 16008KT 27/15 A2996 RMK A01 T02720146  RH  046%=      5-min Rain = 0
KCL1 191344Z 18005KT 27/15 A2996 RMK A01 T02720146  RH  046%=      5-min Rain = 0
KCL1 191345Z 18007KT 27/15 A2996 RMK A01 T02720146  RH  046%=      5-min Rain = 0
KCL1 191346Z 18009KT 27/15 A2996 RMK A01 T02730146  RH  046%=      5-min Rain = 0
KCL1 191347Z 18012KT 27/15 A2996 RMK A01 T02730146  RH  046%=      5-min Rain = 0
KCL1 191348Z 18010KT 27/15 A2996 RMK A01 T02730146  RH  046%=      5-min Rain = 0
KCL1 191349Z 18009KT 27/15 A2996 RMK A01 T02730146  RH  046%=      5-min Rain = 0
KCL1 191350Z 17010KT 27/15 A2997 RMK A01 T02730147  RH  046%=      5-min Rain = 0
KCL1 191351Z 18009KT 27/15 A2997 RMK A01 T02730146  RH  046%=      5-min Rain = 0
KCL1 191352Z 17011KT 27/15 A2997 RMK A01 T02730147  RH  046%=      5-min Rain = 0
KCL1 191353Z 19011KT 27/15 A2997 RMK A01 T02740147  RH  046%=      5-min Rain = 0
KCL1 191354Z 17008KT 27/15 A2997 RMK A01 T02740148  RH  046%=      5-min Rain = 0
KCL1 191355Z 18008KT 27/15 A2997 RMK A01 T02740147  RH  046%=      5-min Rain = 0
KCL1 191356Z 17008KT 27/15 A2997 RMK A01 T02730147  RH  046%=      5-min Rain = 0
KCL1 191357Z 16011KT 27/15 A2997 RMK A01 T02740148  RH  046%=      5-min Rain = 0
KCL1 191358Z 16009KT 27/15 A2997 RMK A01 T02740148  RH  046%=      5-min Rain = 0
KCL1 191359Z 16010G16KT 28/15 A2997 RMK A01 T02750149  RH  046%=      5-min Rain = 0
KCL1 191400Z 17011G16KT 28/15 A2997 RMK A01 T02760148  RH  046%=      5-min Rain = 0
KCL1 191401Z 17011G16KT 28/15 A2997 RMK A01 T02760149  RH  046%=      5-min Rain = 0
KCL1 191402Z 17011G17KT 28/15 A2997 RMK A01 T02760149  RH  046%=      5-min Rain = 0
KCL1 191403Z 17009KT 28/15 A2997 RMK A01 T02770149  RH  046%=      5-min Rain = 0
KCL1 191404Z 17007KT 28/15 A2997 RMK A01 T02770149  RH  045%=      5-min Rain = 0
KCL1 191405Z 18010KT 28/15 A2997 RMK A01 T02770150  RH  046%=      5-min Rain = 0
KCL1 191406Z 18009KT 28/15 A2997 RMK A01 T02780148  RH  045%=      5-min Rain = 0
KCL1 191407Z 19006KT 28/15 A2997 RMK A01 T02780150  RH  046%=      5-min Rain = 0
KCL1 191408Z 18006KT 28/15 A2997 RMK A01 T02780150  RH  046%=      5-min Rain = 0
KCL1 191409Z 18010KT 28/15 A2997 RMK A01 T02790150  RH  045%=      5-min Rain = 0
KCL1 191410Z 18008KT 28/15 A2997 RMK A01 T02800150  RH  045%=      5-min Rain = 0
KCL1 191411Z 18010KT 28/15 A2997 RMK A01 T02800151  RH  045%=      5-min Rain = 0
KCL1 191412Z 20008G13KT 28/15 A2997 RMK A01 T02800150  RH  045%=      5-min Rain = 0
KCL1 191413Z 19009KT 28/15 A2997 RMK A01 T02800149  RH  045%=      5-min Rain = 0
KCL1 191414Z 18009KT 28/15 A2997 RMK A01 T02810150  RH  045%=      5-min Rain = 0
KCL1 191415Z 18011G17KT 28/15 A2997 RMK A01 T02810150  RH  045%=      5-min Rain = 0
KCL1 191416Z 18013G18KT 28/15 A2996 RMK A01 T02810150  RH  045%=      5-min Rain = 0
KCL1 191417Z 19007G12KT 28/15 A2997 RMK A01 T02810150  RH  045%=      5-min Rain = 0
KCL1 191418Z 18011KT 28/15 A2996 RMK A01 T02810150  RH  045%=      5-min Rain = 0
KCL1 191419Z 20009KT 28/15 A2996 RMK A01 T02810150  RH  045%=      5-min Rain = 0
KCL1 191420Z 19010KT 28/15 A2997 RMK A01 T02810150  RH  045%=      5-min Rain = 0
KCL1 191421Z 18009KT 28/15 A2997 RMK A01 T02820151  RH  045%=      5-min Rain = 0
KCL1 191422Z 18007KT 28/15 A2997 RMK A01 T02830152  RH  045%=      5-min Rain = 0
KCL1 191423Z 20007KT 29/15 A2997 RMK A01 T02850152  RH  044%=      5-min Rain = 0
KCL1 191424Z 20011KT 29/15 A2997 RMK A01 T02850152  RH  044%=      5-min Rain = 0
KCL1 191425Z 18011KT 29/15 A2997 RMK A01 T02850152  RH  044%=      5-min Rain = 0
KCL1 191426Z 20009KT 29/15 A2997 RMK A01 T02860152  RH  044%=      5-min Rain = 0
KCL1 191427Z 19009KT 29/15 A2997 RMK A01 T02860152  RH  044%=      5-min Rain = 0
KCL1 191428Z 18013KT 29/15 A2997 RMK A01 T02860151  RH  044%=      5-min Rain = 0
KCL1 191429Z 19010KT 29/15 A2997 RMK A01 T02850151  RH  044%=      5-min Rain = 0
KCL1 191430Z 20008KT 28/15 A2997 RMK A01 T02830151  RH  044%=      5-min Rain = 0
KCL1 191431Z 20008KT 28/15 A2997 RMK A01 T02830150  RH  044%=      5-min Rain = 0
KCL1 191432Z 19008KT 28/15 A2997 RMK A01 T02830152  RH  045%=      5-min Rain = 0
KCL1 191433Z 19008KT 29/15 A2997 RMK A01 T02850153  RH  045%=      5-min Rain = 0
KCL1 191434Z 19009KT 29/15 A2997 RMK A01 T02880154  RH  044%=      5-min Rain = 0
KCL1 191435Z 18013KT 29/15 A2997 RMK A01 T02890153  RH  044%=      5-min Rain = 0
KCL1 191436Z 17011KT 29/15 A2997 RMK A01 T02890153  RH  044%=      5-min Rain = 0
KCL1 191437Z 17015KT 29/15 A2996 RMK A01 T02880153  RH  044%=      5-min Rain = 0
KCL1 191438Z 18010KT 29/15 A2996 RMK A01 T02880153  RH  044%=      5-min Rain = 0
KCL1 191439Z 20008KT 29/15 A2997 RMK A01 T02880153  RH  044%=      5-min Rain = 0
KCL1 191440Z 20007KT 29/15 A2997 RMK A01 T02880152  RH  044%=      5-min Rain = 0
KCL1 191441Z 20009KT 29/15 A2997 RMK A01 T02880152  RH  044%=      5-min Rain = 0
KCL1 191442Z 20008KT 29/15 A2997 RMK A01 T02880153  RH  044%=      5-min Rain = 0
KCL1 191443Z 19007KT 29/15 A2997 RMK A01 T02880154  RH  044%=      5-min Rain = 0
KCL1 191444Z 18009KT 29/16 A2997 RMK A01 T02900155  RH  044%=      5-min Rain = 0
KCL1 191445Z 20008KT 29/16 A2997 RMK A01 T02910155  RH  043%=      5-min Rain = 0
KCL1 191446Z 19009KT 29/15 A2997 RMK A01 T02920154  RH  043%=      5-min Rain = 0
KCL1 191447Z 19010KT 29/15 A2996 RMK A01 T02920154  RH  043%=      5-min Rain = 0
KCL1 191448Z 20010KT 29/15 A2996 RMK A01 T02900154  RH  043%=      5-min Rain = 0
KCL1 191449Z 19008KT 29/15 A2996 RMK A01 T02900153  RH  043%=      5-min Rain = 0
KCL1 191450Z 20009KT 29/15 A2996 RMK A01 T02890153  RH  044%=      5-min Rain = 0
KCL1 191451Z 20011KT 29/15 A2996 RMK A01 T02890153  RH  043%=      5-min Rain = 0
KCL1 191452Z 18011G16KT 29/15 A2996 RMK A01 T02890153  RH  044%=      5-min Rain = 0
KCL1 191453Z 20010KT 29/16 A2996 RMK A01 T02890155  RH  044%=      5-min Rain = 0
KCL1 191454Z 18009KT 29/15 A2996 RMK A01 T02910153  RH  043%=      5-min Rain = 0
KCL1 191455Z 19009KT 29/15 A2996 RMK A01 T02920154  RH  043%=      5-min Rain = 0
KCL1 191456Z 20010G16KT 29/16 A2996 RMK A01 T02930155  RH  043%=      5-min Rain = 0
KCL1 191457Z 20009KT 29/15 A2996 RMK A01 T02930153  RH  043%=      5-min Rain = 0
KCL1 191458Z 21007KT 29/15 A2996 RMK A01 T02920154  RH  043%=      5-min Rain = 0
KCL1 191459Z 19011KT 29/15 A2996 RMK A01 T02920154  RH  043%=      5-min Rain = 0
KCL1 191500Z 19011KT 29/15 A2996 RMK A01 T02920153  RH  043%=      5-min Rain = 0
KCL1 191501Z 18008KT 29/15 A2996 RMK A01 T02920154  RH  043%=      5-min Rain = 0
KCL1 191502Z 20009KT 29/16 A2996 RMK A01 T02930156  RH  043%=      5-min Rain = 0
KCL1 191503Z 20012KT 30/16 A2996 RMK A01 T02950155  RH  043%=      5-min Rain = 0
KCL1 191504Z 19012G17KT 29/16 A2996 RMK A01 T02940155  RH  043%=      5-min Rain = 0
KCL1 191505Z 19011G16KT 30/15 A2996 RMK A01 T02950153  RH  042%=      5-min Rain = 0
KCL1 191506Z 20012KT 29/15 A2996 RMK A01 T02940153  RH  042%=      5-min Rain = 0
KCL1 191507Z 18009KT 29/15 A2996 RMK A01 T02930154  RH  043%=      5-min Rain = 0
KCL1 191508Z 19009KT 29/15 A2996 RMK A01 T02930154  RH  043%=      5-min Rain = 0
KCL1 191509Z 19009KT 29/15 A2996 RMK A01 T02940154  RH  043%=      5-min Rain = 0
KCL1 191510Z 18010KT 30/16 A2996 RMK A01 T02950156  RH  043%=      5-min Rain = 0
KCL1 191511Z 19011KT 30/16 A2996 RMK A01 T02950156  RH  043%=      5-min Rain = 0
KCL1 191512Z 19008G13KT 30/16 A2996 RMK A01 T02960155  RH  043%=      5-min Rain = 0
KCL1 191513Z 18011KT 30/16 A2996 RMK A01 T02970155  RH  042%=      5-min Rain = 0
KCL1 191514Z 20007KT 30/16 A2996 RMK A01 T02980156  RH  042%=      5-min Rain = 0
KCL1 191515Z 19010KT 30/16 A2996 RMK A01 T02980156  RH  042%=      5-min Rain = 0
KCL1 191516Z 18011KT 30/16 A2996 RMK A01 T02990157  RH  042%=      5-min Rain = 0
KCL1 191517Z 19010KT 30/16 A2996 RMK A01 T03000156  RH  042%=      5-min Rain = 0
KCL1 191518Z 20008KT 30/16 A2996 RMK A01 T02990155  RH  042%=      5-min Rain = 0
KCL1 191519Z 19008KT 30/16 A2996 RMK A01 T02970155  RH  042%=      5-min Rain = 0
KCL1 191520Z 18011KT 30/16 A2996 RMK A01 T02960156  RH  043%=      5-min Rain = 0
KCL1 191521Z 17010KT 30/16 A2996 RMK A01 T02970156  RH  043%=      5-min Rain = 0
KCL1 191522Z 17008KT 30/16 A2996 RMK A01 T02980159  RH  043%=      5-min Rain = 0
KCL1 191523Z 16010KT 30/16 A2996 RMK A01 T03010159  RH  042%=      5-min Rain = 0
KCL1 191524Z 17010KT 30/16 A2996 RMK A01 T03020159  RH  042%=      5-min Rain = 0
KCL1 191525Z 18014KT 30/16 A2996 RMK A01 T03030158  RH  042%=      5-min Rain = 0
KCL1 191526Z 21010KT 30/16 A2996 RMK A01 T03030158  RH  042%=      5-min Rain = 0
KCL1 191527Z 20011KT 30/16 A2996 RMK A01 T03020157  RH  042%=      5-min Rain = 0
KCL1 191528Z 21012KT 30/16 A2996 RMK A01 T03020157  RH  041%=      5-min Rain = 0
KCL1 191529Z 21012KT 30/16 A2996 RMK A01 T03010156  RH  041%=      5-min Rain = 0
KCL1 191530Z 20010KT 30/16 A2996 RMK A01 T03000156  RH  042%=      5-min Rain = 0
KCL1 191531Z 19012KT 30/16 A2996 RMK A01 T03000156  RH  042%=      5-min Rain = 0
KCL1 191532Z 19010KT 30/16 A2996 RMK A01 T03000157  RH  042%=      5-min Rain = 0
KCL1 191533Z 20008G13KT 30/16 A2996 RMK A01 T03000157  RH  042%=      5-min Rain = 0
KCL1 191534Z 20012KT 30/16 A2996 RMK A01 T03020157  RH  042%=      5-min Rain = 0
KCL1 191535Z 20012KT 30/16 A2996 RMK A01 T03020156  RH  041%=      5-min Rain = 0
KCL1 191536Z 19011KT 30/16 A2996 RMK A01 T03010156  RH  041%=      5-min Rain = 0
KCL1 191537Z 20010KT 30/16 A2996 RMK A01 T02990156  RH  042%=      5-min Rain = 0
KCL1 191538Z 19009KT 30/16 A2996 RMK A01 T02990156  RH  042%=      5-min Rain = 0
KCL1 191539Z 18007KT 30/16 A2996 RMK A01 T03000159  RH  042%=      5-min Rain = 0
KCL1 191540Z 20008KT 30/16 A2996 RMK A01 T03040160  RH  042%=      5-min Rain = 0
KCL1 191541Z 20007KT 31/16 A2996 RMK A01 T03050159  RH  041%=      5-min Rain = 0
KCL1 191542Z 18008KT 31/16 A2996 RMK A01 T03050160  RH  042%=      5-min Rain = 0
KCL1 191543Z 21010KT 31/16 A2996 RMK A01 T03070160  RH  041%=      5-min Rain = 0
KCL1 191544Z 19010KT 31/16 A2996 RMK A01 T03070159  RH  041%=      5-min Rain = 0
KCL1 191545Z 18008KT 31/16 A2996 RMK A01 T03070160  RH  041%=      5-min Rain = 0
KCL1 191546Z 19009KT 31/16 A2996 RMK A01 T03080161  RH  041%=      5-min Rain = 0
KCL1 191547Z 19010KT 31/16 A2996 RMK A01 T03090158  RH  040%=      5-min Rain = 0
KCL1 191548Z 23010KT 31/16 A2996 RMK A01 T03090159  RH  041%=      5-min Rain = 0
KCL1 191549Z 21011G16KT 31/16 A2996 RMK A01 T03090157  RH  040%=      5-min Rain = 0
KCL1 191550Z 22007G12KT 31/16 A2996 RMK A01 T03090158  RH  040%=      5-min Rain = 0
KCL1 191551Z 22009KT 31/16 A2996 RMK A01 T03090159  RH  040%=      5-min Rain = 0
KCL1 191552Z 20010KT 31/16 A2996 RMK A01 T03110160  RH  040%=      5-min Rain = 0
KCL1 191553Z 19009KT 31/16 A2996 RMK A01 T03110159  RH  040%=      5-min Rain = 0
KCL1 191554Z 19011KT 31/16 A2996 RMK A01 T03100161  RH  041%=      5-min Rain = 0
KCL1 191555Z 20013G18KT 31/16 A2995 RMK A01 T03110160  RH  040%=      5-min Rain = 0
KCL1 191556Z 21010KT 31/16 A2996 RMK A01 T03120159  RH  040%=      5-min Rain = 0
KCL1 191557Z 22007KT 31/16 A2996 RMK A01 T03130160  RH  040%=      5-min Rain = 0
KCL1 191558Z 22010G15KT 31/16 A2996 RMK A01 T03130159  RH  039%=      5-min Rain = 0
KCL1 191559Z 21007KT 31/16 A2996 RMK A01 T03110158  RH  040%=      5-min Rain = 0
KCL1 191600Z 20010KT 31/16 A2996 RMK A01 T03100159  RH  040%=      5-min Rain = 0
KCL1 191601Z 19009KT 31/16 A2996 RMK A01 T03090158  RH  040%=      5-min Rain = 0
KCL1 191602Z 20011G16KT 31/16 A2995 RMK A01 T03110161  RH  040%=      5-min Rain = 0
KCL1 191603Z 20009KT 32/16 A2996 RMK A01 T03150162  RH  040%=      5-min Rain = 0
KCL1 191604Z 20010KT 32/16 A2996 RMK A01 T03180161  RH  039%=      5-min Rain = 0
KCL1 191605Z 21009KT 32/16 A2996 RMK A01 T03170159  RH  039%=      5-min Rain = 0
KCL1 191606Z 19011KT 32/16 A2996 RMK A01 T03150160  RH  039%=      5-min Rain = 0
KCL1 191607Z 18011KT 32/16 A2996 RMK A01 T03150162  RH  040%=      5-min Rain = 0
KCL1 191608Z 18010KT 32/16 A2996 RMK A01 T03160161  RH  039%=      5-min Rain = 0
KCL1 191609Z 18007KT 32/16 A2996 RMK A01 T03170162  RH  039%=      5-min Rain = 0
KCL1 191610Z 20009KT 32/16 A2996 RMK A01 T03190161  RH  039%=      5-min Rain = 0
KCL1 191611Z 19012KT 32/16 A2996 RMK A01 T03190161  RH  039%=      5-min Rain = 0
KCL1 191612Z 19012KT 32/16 A2996 RMK A01 T03180160  RH  039%=      5-min Rain = 0
KCL1 191613Z 18012KT 32/16 A2996 RMK A01 T03170160  RH  039%=      5-min Rain = 0
KCL1 191614Z 18014KT 32/16 A2996 RMK A01 T03170159  RH  039%=      5-min Rain = 0
KCL1 191615Z 18012KT 32/16 A2996 RMK A01 T03170158  RH  038%=      5-min Rain = 0
KCL1 191616Z 18014KT 32/16 A2995 RMK A01 T03170160  RH  039%=      5-min Rain = 0
KCL1 191617Z 19014KT 32/16 A2995 RMK A01 T03170159  RH  039%=      5-min Rain = 0
KCL1 191618Z 20014KT 32/16 A2995 RMK A01 T03180158  RH  038%=      5-min Rain = 0
KCL1 191619Z 20015KT 32/16 A2995 RMK A01 T03180157  RH  038%=      5-min Rain = 0
KCL1 191620Z 19013KT 32/16 A2996 RMK A01 T03180157  RH  038%=      5-min Rain = 0
KCL1 191621Z 19011KT 32/16 A2995 RMK A01 T03180157  RH  038%=      5-min Rain = 0
KCL1 191622Z 19015KT 32/16 A2995 RMK A01 T03190159  RH  038%=      5-min Rain = 0
KCL1 191623Z 19011KT 32/16 A2996 RMK A01 T03190158  RH  038%=      5-min Rain = 0
KCL1 191624Z 19011KT 32/16 A2995 RMK A01 T03190159  RH  038%=      5-min Rain = 0
KCL1 191625Z 19012G17KT 32/16 A2996 RMK A01 T03210161  RH  038%=      5-min Rain = 0
KCL1 191626Z 20009KT 32/16 A2996 RMK A01 T03220160  RH  038%=      5-min Rain = 0
KCL1 191627Z 19010KT 32/16 A2995 RMK A01 T03230161  RH  038%=      5-min Rain = 0
KCL1 191628Z 19010KT 32/16 A2995 RMK A01 T03230160  RH  038%=      5-min Rain = 0
KCL1 191629Z 19009KT 32/16 A2995 RMK A01 T03220161  RH  038%=      5-min Rain = 0
KCL1 191630Z 20011KT 32/16 A2995 RMK A01 T03230162  RH  038%=      5-min Rain = 0
KCL1 191631Z 20012KT 33/16 A2995 RMK A01 T03260160  RH  037%=      5-min Rain = 0
KCL1 191632Z 20014KT 33/16 A2996 RMK A01 T03250160  RH  037%=      5-min Rain = 0
KCL1 191633Z 20013KT 32/16 A2995 RMK A01 T03220158  RH  037%=      5-min Rain = 0
KCL1 191634Z 20010KT 32/16 A2995 RMK A01 T03200160  RH  038%=      5-min Rain = 0
KCL1 191635Z 19011KT 32/16 A2995 RMK A01 T03210160  RH  038%=      5-min Rain = 0
KCL1 191636Z 18010KT 32/16 A2995 RMK A01 T03220161  RH  038%=      5-min Rain = 0
KCL1 191637Z 19012KT 32/16 A2995 RMK A01 T03240161  RH  038%=      5-min Rain = 0
KCL1 191638Z 19012KT 33/16 A2995 RMK A01 T03250160  RH  037%=      5-min Rain = 0
KCL1 191639Z 19010KT 33/16 A2995 RMK A01 T03250161  RH  037%=      5-min Rain = 0
KCL1 191640Z 19013KT 33/16 A2995 RMK A01 T03250161  RH  037%=      5-min Rain = 0
KCL1 191641Z 20012KT 33/16 A2995 RMK A01 T03250161  RH  037%=      5-min Rain = 0
KCL1 191642Z 19011KT 33/16 A2995 RMK A01 T03260160  RH  037%=      5-min Rain = 0
KCL1 191643Z 19012G17KT 33/16 A2995 RMK A01 T03260161  RH  037%=      5-min Rain = 0
KCL1 191644Z 21010G16KT 33/16 A2995 RMK A01 T03270161  RH  037%=      5-min Rain = 0
KCL1 191645Z 21010KT 33/16 A2995 RMK A01 T03280160  RH  037%=      5-min Rain = 0
KCL1 191646Z 21008KT 33/16 A2995 RMK A01 T03280159  RH  036%=      5-min Rain = 0
KCL1 191647Z 22010KT 33/16 A2995 RMK A01 T03270160  RH  037%=      5-min Rain = 0
KCL1 191648Z 21006KT 33/16 A2995 RMK A01 T03270161  RH  037%=      5-min Rain = 0
KCL1 191649Z 19007KT 33/16 A2995 RMK A01 T03290163  RH  037%=      5-min Rain = 0
KCL1 191650Z 21011KT 33/16 A2995 RMK A01 T03300163  RH  037%=      5-min Rain = 0
KCL1 191651Z 20011KT 33/16 A2995 RMK A01 T03310162  RH  036%=      5-min Rain = 0
KCL1 191652Z 19012KT 33/16 A2995 RMK A01 T03300162  RH  037%=      5-min Rain = 0
KCL1 191653Z 21009KT 33/16 A2995 RMK A01 T03290161  RH  037%=      5-min Rain = 0
KCL1 191654Z 21008KT 33/16 A2995 RMK A01 T03290162  RH  037%=      5-min Rain = 0
KCL1 191655Z 21007KT 33/16 A2995 RMK A01 T03280160  RH  036%=      5-min Rain = 0
KCL1 191656Z 20010KT 33/16 A2995 RMK A01 T03290163  RH  037%=      5-min Rain = 0
KCL1 191657Z 19012KT 33/16 A2995 RMK A01 T03320162  RH  036%=      5-min Rain = 0
KCL1 191658Z 19009KT 33/16 A2995 RMK A01 T03330161  RH  036%=      5-min Rain = 0
KCL1 191659Z 19010G15KT 33/16 A2995 RMK A01 T03320162  RH  036%=      5-min Rain = 0
KCL1 191700Z 21008G13KT 34/16 A2995 RMK A01 T03360162  RH  035%=      5-min Rain = 0
KCL1 191701Z 20010KT 34/16 A2995 RMK A01 T03370162  RH  035%=      5-min Rain = 0
KCL1 191702Z 21009KT 34/16 A2995 RMK A01 T03370161  RH  035%=      5-min Rain = 0
KCL1 191703Z 19007KT 34/16 A2995 RMK A01 T03350163  RH  036%=      5-min Rain = 0
KCL1 191704Z 19008KT 34/16 A2995 RMK A01 T03370163  RH  036%=      5-min Rain = 0
KCL1 191705Z 17006KT 34/16 A2995 RMK A01 T03380164  RH  035%=      5-min Rain = 0
KCL1 191706Z 18009G14KT 34/17 A2995 RMK A01 T03400166  RH  035%=      5-min Rain = 0
KCL1 191707Z 17008KT 34/16 A2995 RMK A01 T03420164  RH  035%=      5-min Rain = 0
KCL1 191708Z 16010KT 34/16 A2995 RMK A01 T03410164  RH  035%=      5-min Rain = 0
KCL1 191709Z 17009KT 34/16 A2995 RMK A01 T03410164  RH  035%=      5-min Rain = 0
KCL1 191710Z 16010KT 34/17 A2995 RMK A01 T03440165  RH  034%=      5-min Rain = 0
KCL1 191711Z 18009G14KT 35/16 A2995 RMK A01 T03450164  RH  034%=      5-min Rain = 0
KCL1 191712Z 18011KT 34/16 A2995 RMK A01 T03440162  RH  034%=      5-min Rain = 0
KCL1 191713Z 17010KT 34/16 A2995 RMK A01 T03400163  RH  035%=      5-min Rain = 0
KCL1 191714Z 18010KT 34/16 A2995 RMK A01 T03400163  RH  035%=      5-min Rain = 0
KCL1 191715Z 18007KT 34/16 A2995 RMK A01 T03390162  RH  035%=      5-min Rain = 0
KCL1 191716Z 16008KT 34/16 A2995 RMK A01 T03380163  RH  035%=      5-min Rain = 0
KCL1 191717Z 18008KT 34/16 A2995 RMK A01 T03390164  RH  035%=      5-min Rain = 0
KCL1 191718Z 17007KT 34/16 A2995 RMK A01 T03390162  RH  035%=      5-min Rain = 0
KCL1 191719Z 16008KT 34/17 A2994 RMK A01 T03400165  RH  035%=      5-min Rain = 0
KCL1 191720Z 18010KT 35/17 A2994 RMK A01 T03450167  RH  035%=      5-min Rain = 0
KCL1 191721Z 17009G14KT 35/16 A2994 RMK A01 T03470163  RH  033%=      5-min Rain = 0
KCL1 191722Z 15010KT 35/16 A2994 RMK A01 T03450163  RH  034%=      5-min Rain = 0
KCL1 191723Z 17011KT 34/16 A2994 RMK A01 T03440163  RH  034%=      5-min Rain = 0
KCL1 191724Z 20013KT 35/16 A2994 RMK A01 T03460163  RH  034%=      5-min Rain = 0
KCL1 191725Z 20012KT 34/16 A2994 RMK A01 T03440161  RH  034%=      5-min Rain = 0
KCL1 191726Z 19011KT 34/16 A2994 RMK A01 T03430161  RH  034%=      5-min Rain = 0
KCL1 191727Z 17008KT 34/16 A2994 RMK A01 T03440160  RH  033%=      5-min Rain = 0
KCL1 191728Z 18007KT 35/16 A2994 RMK A01 T03450164  RH  034%=      5-min Rain = 0
KCL1 191729Z 19009KT 35/16 A2994 RMK A01 T03490164  RH  033%=      5-min Rain = 0
KCL1 191730Z 19012KT 35/16 A2994 RMK A01 T03500163  RH  033%=      5-min Rain = 0
KCL1 191731Z 21012KT 35/16 A2994 RMK A01 T03490160  RH  033%=      5-min Rain = 0
KCL1 191732Z 20010G15KT 35/16 A2994 RMK A01 T03450160  RH  033%=      5-min Rain = 0
KCL1 191733Z 20012KT 35/16 A2994 RMK A01 T03450161  RH  033%=      5-min Rain = 0
KCL1 191734Z 19009KT 35/16 A2994 RMK A01 T03450160  RH  033%=      5-min Rain = 0
KCL1 191735Z 18009KT 34/16 A2994 RMK A01 T03440160  RH  033%=      5-min Rain = 0
KCL1 191736Z 19011KT 34/16 A2994 RMK A01 T03440160  RH  033%=      5-min Rain = 0
KCL1 191737Z 20009G15KT 35/16 A2994 RMK A01 T03460159  RH  033%=      5-min Rain = 0
KCL1 191738Z 18008KT 35/16 A2994 RMK A01 T03450160  RH  033%=      5-min Rain = 0
KCL1 191739Z 19008G16KT 35/16 A2994 RMK A01 T03460162  RH  033%=      5-min Rain = 0
KCL1 191740Z 19010KT 35/16 A2994 RMK A01 T03470160  RH  033%=      5-min Rain = 0
KCL1 191741Z 19010KT 35/16 A2994 RMK A01 T03480160  RH  033%=      5-min Rain = 0
KCL1 191742Z 19009KT 35/16 A2994 RMK A01 T03470161  RH  033%=      5-min Rain = 0
KCL1 191743Z 21010KT 35/16 A2994 RMK A01 T03490161  RH  033%=      5-min Rain = 0
KCL1 191744Z 21010KT 35/16 A2994 RMK A01 T03480159  RH  032%=      5-min Rain = 0
KCL1 191745Z 22009KT 35/16 A2994 RMK A01 T03470158  RH  032%=      5-min Rain = 0
KCL1 191746Z 22010KT 35/16 A2994 RMK A01 T03470157  RH  032%=      5-min Rain = 0
KCL1 191747Z 18009KT 35/16 A2994 RMK A01 T03480159  RH  032%=      5-min Rain = 0
KCL1 191748Z 19008KT 35/16 A2994 RMK A01 T03500161  RH  033%=      5-min Rain = 0
KCL1 191749Z 22006KT 35/16 A2994 RMK A01 T03510160  RH  032%=      5-min Rain = 0
KCL1 191750Z 23009KT 35/16 A2994 RMK A01 T03510160  RH  032%=      5-min Rain = 0
KCL1 191751Z 20007G14KT 35/16 A2994 RMK A01 T03520161  RH  032%=      5-min Rain = 0
KCL1 191752Z 22012KT 35/16 A2994 RMK A01 T03530160  RH  032%=      5-min Rain = 0
KCL1 191753Z 20008KT 35/16 A2994 RMK A01 T03490158  RH  032%=      5-min Rain = 0
KCL1 191754Z 19013KT 35/16 A2994 RMK A01 T03470157  RH  032%=      5-min Rain = 0
KCL1 191755Z 20011G16KT 35/16 A2994 RMK A01 T03480156  RH  032%=      5-min Rain = 0
KCL1 191756Z 19010KT 35/16 A2994 RMK A01 T03500157  RH  032%=      5-min Rain = 0
KCL1 191757Z 18011KT 35/16 A2994 RMK A01 T03530160  RH  032%=      5-min Rain = 0
KCL1 191758Z 17008KT 35/16 A2994 RMK A01 T03540160  RH  032%=      5-min Rain = 0
KCL1 191759Z 23009KT 35/16 A2994 RMK A01 T03530161  RH  032%=      5-min Rain = 0
KCL1 191800Z 22006KT 35/16 A2994 RMK A01 T03540158  RH  031%=      5-min Rain = 0
KCL1 191801Z 22007KT 36/16 A2993 RMK A01 T03550160  RH  031%=      5-min Rain = 0
KCL1 191802Z 22007G12KT 36/16 A2993 RMK A01 T03560160  RH  031%=      5-min Rain = 0
KCL1 191803Z 19010KT 36/16 A2993 RMK A01 T03570161  RH  031%=      5-min Rain = 0
KCL1 191804Z 19008KT 36/16 A2993 RMK A01 T03570162  RH  031%=      5-min Rain = 0
KCL1 191805Z 21009KT 36/16 A2993 RMK A01 T03570162  RH  032%=      5-min Rain = 0
KCL1 191806Z 21006KT 35/16 A2993 RMK A01 T03540162  RH  032%=      5-min Rain = 0
KCL1 191807Z 17008G15KT 36/17 A2993 RMK A01 T03550165  RH  033%=      5-min Rain = 0
KCL1 191808Z 16010G16KT 36/16 A2993 RMK A01 T03590164  RH  032%=      5-min Rain = 0
KCL1 191809Z 16015KT 36/16 A2993 RMK A01 T03570164  RH  032%=      5-min Rain = 0
KCL1 191810Z 17008KT 36/17 A2993 RMK A01 T03570165  RH  032%=      5-min Rain = 0
KCL1 191811Z 14008G16KT 36/17 A2993 RMK A01 T03580165  RH  032%=      5-min Rain = 0
KCL1 191812Z 15013G18KT 36/16 A2993 RMK A01 T03610164  RH  031%=      5-min Rain = 0
KCL1 191813Z 15013KT 36/16 A2993 RMK A01 T03620164  RH  031%=      5-min Rain = 0
KCL1 191814Z 16008KT 36/16 A2993 RMK A01 T03610164  RH  031%=      5-min Rain = 0
KCL1 191815Z 19011G16KT 36/16 A2993 RMK A01 T03610164  RH  031%=      5-min Rain = 0
KCL1 191816Z 15010KT 36/16 A2993 RMK A01 T03610162  RH  031%=      5-min Rain = 0
KCL1 191817Z 15011G19KT 36/16 A2993 RMK A01 T03610163  RH  031%=      5-min Rain = 0
KCL1 191818Z 15015G21KT 36/16 A2993 RMK A01 T03620162  RH  031%=      5-min Rain = 0
KCL1 191819Z 15013KT 36/16 A2993 RMK A01 T03620163  RH  031%=      5-min Rain = 0
KCL1 191820Z 16011KT 36/16 A2993 RMK A01 T03630164  RH  031%=      5-min Rain = 0
KCL1 191821Z 17009KT 37/16 A2993 RMK A01 T03650164  RH  031%=      5-min Rain = 0
KCL1 191822Z 15009G15KT 37/17 A2993 RMK A01 T03660166  RH  031%=      5-min Rain = 0
KCL1 191823Z 18011KT 37/17 A2993 RMK A01 T03690165  RH  030%=      5-min Rain = 0
KCL1 191824Z 17012KT 37/16 A2993 RMK A01 T03700164  RH  030%=      5-min Rain = 0
KCL1 191825Z 16012KT 37/16 A2993 RMK A01 T03700164  RH  030%=      5-min Rain = 0
KCL1 191826Z 16009KT 37/16 A2992 RMK A01 T03690163  RH  030%=      5-min Rain = 0
KCL1 191827Z 19011KT 37/16 A2992 RMK A01 T03680163  RH  030%=      5-min Rain = 0
KCL1 191828Z 19009KT 37/16 A2992 RMK A01 T03670162  RH  030%=      5-min Rain = 0
KCL1 191829Z 19006KT 37/16 A2992 RMK A01 T03650163  RH  030%=      5-min Rain = 0
KCL1 191830Z 18005KT 37/17 A2992 RMK A01 T03660166  RH  031%=      5-min Rain = 0
KCL1 191831Z 18008KT 37/16 A2992 RMK A01 T03700164  RH  030%=      5-min Rain = 0
KCL1 191832Z 19012KT 37/17 A2992 RMK A01 T03720165  RH  030%=      5-min Rain = 0
KCL1 191833Z 18008KT 37/16 A2992 RMK A01 T03720162  RH  029%=      5-min Rain = 0
KCL1 191834Z 17011KT 37/16 A2992 RMK A01 T03720162  RH  029%=      5-min Rain = 0
KCL1 191835Z 18010KT 37/16 A2992 RMK A01 T03740161  RH  028%=      5-min Rain = 0
KCL1 191836Z 19009KT 38/16 A2992 RMK A01 T03760160  RH  028%=      5-min Rain = 0
KCL1 191837Z 15012KT 37/16 A2992 RMK A01 T03740160  RH  028%=      5-min Rain = 0
KCL1 191838Z 16011KT 37/16 A2992 RMK A01 T03730161  RH  029%=      5-min Rain = 0
KCL1 191839Z 15014KT 37/16 A2992 RMK A01 T03720158  RH  028%=      5-min Rain = 0
KCL1 191840Z 16011KT 37/16 A2992 RMK A01 T03690159  RH  029%=      5-min Rain = 0
KCL1 191841Z 19008G14KT 37/16 A2992 RMK A01 T03710161  RH  029%=      5-min Rain = 0
KCL1 191842Z 18012KT 38/16 A2992 RMK A01 T03760160  RH  028%=      5-min Rain = 0
KCL1 191843Z 18010KT 38/16 A2992 RMK A01 T03760158  RH  028%=      5-min Rain = 0
KCL1 191844Z 17010G15KT 38/16 A2992 RMK A01 T03750160  RH  028%=      5-min Rain = 0
KCL1 191845Z 18011KT 37/16 A2992 RMK A01 T03730157  RH  028%=      5-min Rain = 0
KCL1 191846Z 18012G17KT 37/16 A2992 RMK A01 T03700158  RH  029%=      5-min Rain = 0
KCL1 191847Z 17007KT 37/16 A2992 RMK A01 T03680157  RH  029%=      5-min Rain = 0
KCL1 191848Z 17014G20KT 37/16 A2992 RMK A01 T03670156  RH  029%=      5-min Rain = 0
KCL1 191849Z 16016KT 37/15 A2992 RMK A01 T03690150  RH  027%=      5-min Rain = 0
KCL1 191850Z 18016KT 37/15 A2992 RMK A01 T03700150  RH  027%=      5-min Rain = 0
KCL1 191851Z 17012KT 37/15 A2992 RMK A01 T03710146  RH  026%=      5-min Rain = 0
KCL1 191852Z 19011G17KT 37/15 A2992 RMK A01 T03690149  RH  027%=      5-min Rain = 0
KCL1 191853Z 16016G21KT 37/15 A2992 RMK A01 T03690151  RH  028%=      5-min Rain = 0
KCL1 191854Z 17014KT 37/15 A2992 RMK A01 T03700148  RH  027%=      5-min Rain = 0
KCL1 191855Z 17011G17KT 37/15 A2992 RMK A01 T03710152  RH  027%=      5-min Rain = 0
KCL1 191856Z 16014KT 37/15 A2992 RMK A01 T03740154  RH  027%=      5-min Rain = 0
KCL1 191857Z 18013KT 37/16 A2992 RMK A01 T03740155  RH  027%=      5-min Rain = 0
KCL1 191858Z 15011KT 37/16 A2992 RMK A01 T03730156  RH  028%=      5-min Rain = 0
KCL1 191859Z 15012KT 37/16 A2992 RMK A01 T03740157  RH  028%=      5-min Rain = 0
KCL1 191900Z 17012G18KT 38/16 A2991 RMK A01 T03770157  RH  027%=      5-min Rain = 0
KCL1 191901Z 19014G20KT 38/16 A2992 RMK A01 T03820158  RH  027%=      5-min Rain = 0
KCL1 191902Z 18016KT 38/15 A2992 RMK A01 T03810153  RH  026%=      5-min Rain = 0
KCL1 191903Z 18010KT 38/15 A2992 RMK A01 T03750154  RH  027%=      5-min Rain = 0
KCL1 191904Z 20010G15KT 37/16 A2992 RMK A01 T03710155  RH  028%=      5-min Rain = 0
KCL1 191905Z 21010KT 37/15 A2992 RMK A01 T03710153  RH  028%=      5-min Rain = 0
KCL1 191906Z 20011KT 37/15 A2992 RMK A01 T03710152  RH  027%=      5-min Rain = 0
KCL1 191907Z 19012KT 37/15 A2992 RMK A01 T03740148  RH  026%=      5-min Rain = 0
KCL1 191908Z 19015KT 38/15 A2992 RMK A01 T03760149  RH  026%=      5-min Rain = 0
KCL1 191909Z 19012KT 38/15 A2992 RMK A01 T03750147  RH  026%=      5-min Rain = 0
KCL1 191910Z 19010KT 37/14 A2992 RMK A01 T03730144  RH  026%=      5-min Rain = 0
KCL1 191911Z 20008KT 37/15 A2992 RMK A01 T03730146  RH  026%=      5-min Rain = 0
KCL1 191912Z 20012G17KT 37/15 A2992 RMK A01 T03740146  RH  026%=      5-min Rain = 0
KCL1 191913Z 19014KT 37/14 A2991 RMK A01 T03740144  RH  025%=      5-min Rain = 0
KCL1 191914Z 20013G20KT 37/14 A2991 RMK A01 T03740144  RH  026%=      5-min Rain = 0
KCL1 191915Z 20010G15KT 38/14 A2992 RMK A01 T03750142  RH  025%=      5-min Rain = 0
KCL1 191916Z 21010G15KT 38/14 A2991 RMK A01 T03790143  RH  025%=      5-min Rain = 0
KCL1 191917Z 21010G17KT 38/14 A2991 RMK A01 T03770144  RH  025%=      5-min Rain = 0
KCL1 191918Z 20013KT 38/15 A2991 RMK A01 T03780148  RH  026%=      5-min Rain = 0
KCL1 191919Z 20012KT 38/15 A2991 RMK A01 T03790150  RH  026%=      5-min Rain = 0
KCL1 191920Z 19008KT 38/15 A2991 RMK A01 T03770151  RH  026%=      5-min Rain = 0
KCL1 191921Z 16008KT 38/15 A2991 RMK A01 T03760153  RH  027%=      5-min Rain = 0
KCL1 191922Z 18008G13KT 38/15 A2991 RMK A01 T03790153  RH  026%=      5-min Rain = 0
KCL1 191923Z 20014G19KT 38/15 A2991 RMK A01 T03800152  RH  026%=      5-min Rain = 0
KCL1 191924Z 19013KT 38/14 A2991 RMK A01 T03800138  RH  024%=      5-min Rain = 0
KCL1 191925Z 22006G16KT 38/14 A2991 RMK A01 T03770138  RH  024%=      5-min Rain = 0
KCL1 191926Z 19014G21KT 38/14 A2991 RMK A01 T03770142  RH  025%=      5-min Rain = 0
KCL1 191927Z 18016KT 38/15 A2991 RMK A01 T03780145  RH  025%=      5-min Rain = 0
KCL1 191928Z 20011G17KT 38/14 A2991 RMK A01 T03780143  RH  025%=      5-min Rain = 0
KCL1 191929Z 20012KT 38/14 A2991 RMK A01 T03770144  RH  025%=      5-min Rain = 0
KCL1 191930Z 19013KT 38/15 A2991 RMK A01 T03760146  RH  026%=      5-min Rain = 0
KCL1 191931Z 19012KT 38/15 A2991 RMK A01 T03770148  RH  026%=      5-min Rain = 0
KCL1 191932Z 21008KT 38/15 A2991 RMK A01 T03790149  RH  026%=      5-min Rain = 0
KCL1 191933Z 20013G18KT 38/15 A2991 RMK A01 T03800148  RH  025%=      5-min Rain = 0
KCL1 191934Z 21013KT 38/15 A2991 RMK A01 T03760146  RH  026%=      5-min Rain = 0
KCL1 191935Z 20013G19KT 38/15 A2991 RMK A01 T03760147  RH  026%=      5-min Rain = 0
KCL1 191936Z 17012KT 38/15 A2991 RMK A01 T03800149  RH  025%=      5-min Rain = 0
KCL1 191937Z 17013KT 38/15 A2991 RMK A01 T03830149  RH  025%=      5-min Rain = 0
KCL1 191938Z 19009KT 39/15 A2991 RMK A01 T03860151  RH  025%=      5-min Rain = 0
KCL1 191939Z 17011KT 39/15 A2991 RMK A01 T03890152  RH  025%=      5-min Rain = 0
KCL1 191940Z 17010G15KT 39/15 A2991 RMK A01 T03900149  RH  024%=      5-min Rain = 0
KCL1 191941Z 19014G21KT 39/15 A2991 RMK A01 T03890148  RH  024%=      5-min Rain = 0
KCL1 191942Z 21014KT 39/14 A2991 RMK A01 T03880140  RH  023%=      5-min Rain = 0
KCL1 191943Z 22011KT 38/14 A2991 RMK A01 T03840139  RH  024%=      5-min Rain = 0
KCL1 191944Z 20008KT 38/14 A2991 RMK A01 T03830138  RH  023%=      5-min Rain = 0
KCL1 191945Z 19010KT 38/14 A2991 RMK A01 T03830141  RH  024%=      5-min Rain = 0
KCL1 191946Z 17012G17KT 38/14 A2991 RMK A01 T03830144  RH  024%=      5-min Rain = 0
KCL1 191947Z 16013KT 39/15 A2991 RMK A01 T03860146  RH  024%=      5-min Rain = 0
KCL1 191948Z 18010KT 39/15 A2991 RMK A01 T03860147  RH  024%=      5-min Rain = 0
KCL1 191949Z 16012KT 39/15 A299 RMK A01 T03870147  RH  024%=      5-min Rain = 0
KCL1 191950Z 17011KT 39/15 A299 RMK A01 T03880147  RH  024%=      5-min Rain = 0
KCL1 191951Z 17007KT 39/15 A299 RMK A01 T03870148  RH  024%=      5-min Rain = 0
KCL1 191952Z 18008KT 39/15 A299 RMK A01 T03910148  RH  024%=      5-min Rain = 0
KCL1 191953Z 18011KT 39/15 A299 RMK A01 T03900149  RH  024%=      5-min Rain = 0
KCL1 191954Z 19011KT 39/15 A299 RMK A01 T03920147  RH  024%=      5-min Rain = 0
KCL1 191955Z 15012KT 39/15 A299 RMK A01 T03910149  RH  024%=      5-min Rain = 0
KCL1 191956Z 19012G22KT 39/15 A299 RMK A01 T03920149  RH  024%=      5-min Rain = 0
KCL1 191957Z 20019KT 39/14 A299 RMK A01 T03930144  RH  023%=      5-min Rain = 0
KCL1 191958Z 18014G19KT 39/14 A299 RMK A01 T03860143  RH  024%=      5-min Rain = 0
KCL1 191959Z 16012KT 38/14 A299 RMK A01 T03840143  RH  024%=      5-min Rain = 0
KCL1 192000Z 16012G17KT 38/14 A299 RMK A01 T03840142  RH  024%=      5-min Rain = 0
KCL1 192001Z 18013KT 39/14 A299 RMK A01 T03860143  RH  024%=      5-min Rain = 0
KCL1 192002Z 18010KT 39/14 A299 RMK A01 T03870142  RH  023%=      5-min Rain = 0
KCL1 192003Z 16012G18KT 38/14 A299 RMK A01 T03840144  RH  024%=      5-min Rain = 0
KCL1 192004Z 15012KT 39/14 A299 RMK A01 T03850143  RH  024%=      5-min Rain = 0
KCL1 192005Z 13011KT 39/14 A299 RMK A01 T03850141  RH  024%=      5-min Rain = 0
KCL1 192006Z 14010KT 38/14 A299 RMK A01 T03840144  RH  024%=      5-min Rain = 0
KCL1 192007Z 15014KT 39/14 A299 RMK A01 T03850144  RH  024%=      5-min Rain = 0
KCL1 192008Z 16012KT 39/15 A299 RMK A01 T03880146  RH  024%=      5-min Rain = 0
KCL1 192009Z 15009KT 39/15 A299 RMK A01 T03880145  RH  024%=      5-min Rain = 0
KCL1 192010Z 18013KT 39/15 A299 RMK A01 T03870147  RH  024%=      5-min Rain = 0
KCL1 192011Z 18018KT 39/14 A299 RMK A01 T03890144  RH  024%=      5-min Rain = 0
KCL1 192012Z 18016KT 39/14 A299 RMK A01 T03880144  RH  024%=      5-min Rain = 0
KCL1 192013Z 18011KT 39/14 A299 RMK A01 T03860144  RH  024%=      5-min Rain = 0
KCL1 192014Z 19010KT 39/14 A299 RMK A01 T03850143  RH  024%=      5-min Rain = 0
KCL1 192015Z 17014G19KT 39/14 A299 RMK A01 T03860144  RH  024%=      5-min Rain = 0
KCL1 192016Z 17008KT 39/14 A299 RMK A01 T03880144  RH  024%=      5-min Rain = 0
KCL1 192017Z 17010G15KT 39/15 A299 RMK A01 T03890145  RH  024%=      5-min Rain = 0
KCL1 192018Z 16015G21KT 39/14 A299 RMK A01 T03920143  RH  023%=      5-min Rain = 0
KCL1 192019Z 15015KT 39/14 A299 RMK A01 T03910141  RH  023%=      5-min Rain = 0
KCL1 192020Z 18011KT 39/14 A299 RMK A01 T03890142  RH  023%=      5-min Rain = 0
KCL1 192021Z 17012KT 39/14 A299 RMK A01 T03920142  RH  023%=      5-min Rain = 0
KCL1 192022Z 16011G16KT 39/14 A299 RMK A01 T03910143  RH  023%=      5-min Rain = 0
KCL1 192023Z 17011G17KT 39/14 A299 RMK A01 T03900142  RH  023%=      5-min Rain = 0
KCL1 192024Z 16010G16KT 39/14 A2989 RMK A01 T03890144  RH  024%=      5-min Rain = 0
KCL1 192025Z 14012KT 39/14 A2989 RMK A01 T03900144  RH  023%=      5-min Rain = 0
KCL1 192026Z 16016KT 39/14 A2989 RMK A01 T03910144  RH  023%=      5-min Rain = 0
KCL1 192027Z 20017KT 39/14 A299 RMK A01 T03900142  RH  023%=      5-min Rain = 0
KCL1 192028Z 19015KT 39/14 A299 RMK A01 T03870140  RH  023%=      5-min Rain = 0
KCL1 192029Z 19010KT 38/14 A299 RMK A01 T03840140  RH  023%=      5-min Rain = 0
KCL1 192030Z 19011G16KT 39/14 A299 RMK A01 T03850141  RH  024%=      5-min Rain = 0
KCL1 192031Z 20011G16KT 39/14 A299 RMK A01 T03890140  RH  023%=      5-min Rain = 0
KCL1 192032Z 19010KT 39/14 A299 RMK A01 T03900139  RH  023%=      5-min Rain = 0
KCL1 192033Z 16009KT 39/14 A2989 RMK A01 T03880139  RH  023%=      5-min Rain = 0
KCL1 192034Z 17013KT 39/14 A2989 RMK A01 T03870142  RH  023%=      5-min Rain = 0
KCL1 192035Z 19009KT 39/14 A2989 RMK A01 T03870143  RH  024%=      5-min Rain = 0
KCL1 192036Z 17011KT 39/14 A2989 RMK A01 T03880143  RH  024%=      5-min Rain = 0
KCL1 192037Z 16012KT 39/15 A2989 RMK A01 T03880145  RH  024%=      5-min Rain = 0
KCL1 192038Z 16014KT 39/14 A2989 RMK A01 T03880144  RH  024%=      5-min Rain = 0
KCL1 192039Z 16015KT 39/15 A2989 RMK A01 T03890146  RH  024%=      5-min Rain = 0
KCL1 192040Z 15010KT 39/15 A2989 RMK A01 T03900146  RH  024%=      5-min Rain = 0
KCL1 192041Z 16010G15KT 39/15 A2989 RMK A01 T03910148  RH  024%=      5-min Rain = 0
KCL1 192042Z 17016KT 39/15 A2989 RMK A01 T03930145  RH  023%=      5-min Rain = 0
KCL1 192043Z 18017KT 39/14 A2989 RMK A01 T03920142  RH  023%=      5-min Rain = 0
KCL1 192044Z 18011G17KT 39/14 A2989 RMK A01 T03890139  RH  023%=      5-min Rain = 0
KCL1 192045Z 18008KT 39/14 A2989 RMK A01 T03870140  RH  023%=      5-min Rain = 0
KCL1 192046Z 18012KT 39/14 A2989 RMK A01 T03870140  RH  023%=      5-min Rain = 0
KCL1 192047Z 20013KT 39/14 A2989 RMK A01 T03860141  RH  023%=      5-min Rain = 0
KCL1 192048Z 21008KT 39/14 A2989 RMK A01 T03850139  RH  023%=      5-min Rain = 0
KCL1 192049Z 22014KT 39/14 A2989 RMK A01 T03850141  RH  024%=      5-min Rain = 0
KCL1 192050Z 20012G17KT 39/14 A2989 RMK A01 T03870143  RH  024%=      5-min Rain = 0
KCL1 192051Z 19014G20KT 39/14 A2989 RMK A01 T03880143  RH  024%=      5-min Rain = 0
KCL1 192052Z 19014KT 39/14 A2989 RMK A01 T03900144  RH  023%=      5-min Rain = 0
KCL1 192053Z 20010G16KT 39/14 A2989 RMK A01 T03900144  RH  023%=      5-min Rain = 0
KCL1 192054Z 22012KT 39/14 A2989 RMK A01 T03910143  RH  023%=      5-min Rain = 0
KCL1 192055Z 21013KT 39/14 A2989 RMK A01 T03890140  RH  023%=      5-min Rain = 0
KCL1 192056Z 20012KT 39/14 A2989 RMK A01 T03850140  RH  023%=      5-min Rain = 0
KCL1 192057Z 21009KT 39/14 A2989 RMK A01 T03850140  RH  023%=      5-min Rain = 0
KCL1 192058Z 23008KT 39/14 A2989 RMK A01 T03870138  RH  023%=      5-min Rain = 0
KCL1 192059Z 20012G17KT 39/14 A2989 RMK A01 T03870140  RH  023%=      5-min Rain = 0
KCL1 192100Z 19013KT 39/14 A2989 RMK A01 T03880141  RH  023%=      5-min Rain = 0
KCL1 192101Z 19013KT 39/14 A2989 RMK A01 T03900142  RH  023%=      5-min Rain = 0
KCL1 192102Z 19013KT 39/14 A2989 RMK A01 T03900140  RH  023%=      5-min Rain = 0
KCL1 192103Z 20009KT 39/14 A2989 RMK A01 T03880141  RH  023%=      5-min Rain = 0
KCL1 192104Z 20009KT 39/14 A2989 RMK A01 T03860141  RH  023%=      5-min Rain = 0
KCL1 192105Z 17007KT 39/14 A2989 RMK A01 T03850141  RH  024%=      5-min Rain = 0
KCL1 192106Z 18009KT 39/14 A2989 RMK A01 T03860143  RH  024%=      5-min Rain = 0
KCL1 192107Z 19011KT 39/14 A2989 RMK A01 T03900144  RH  023%=      5-min Rain = 0
KCL1 192108Z 21009KT 39/14 A2989 RMK A01 T03910144  RH  023%=      5-min Rain = 0
KCL1 192109Z 22007G16KT 39/14 A2988 RMK A01 T03920142  RH  023%=      5-min Rain = 0
KCL1 192110Z 21014G20KT 39/14 A2988 RMK A01 T03930142  RH  023%=      5-min Rain = 0
KCL1 192111Z 22016KT 39/14 A2988 RMK A01 T03930138  RH  022%=      5-min Rain = 0
KCL1 192112Z 22015KT 39/14 A2988 RMK A01 T03880136  RH  023%=      5-min Rain = 0
KCL1 192113Z 21013G18KT 39/14 A2988 RMK A01 T03870137  RH  023%=      5-min Rain = 0
KCL1 192114Z 19012KT 39/14 A2988 RMK A01 T03880138  RH  023%=      5-min Rain = 0
KCL1 192115Z 19009KT 39/14 A2988 RMK A01 T03890137  RH  023%=      5-min Rain = 0
KCL1 192116Z 22009KT 39/14 A2988 RMK A01 T03890138  RH  023%=      5-min Rain = 0
KCL1 192117Z 18008KT 39/14 A2988 RMK A01 T03890138  RH  023%=      5-min Rain = 0
KCL1 192118Z 18009KT 39/14 A2988 RMK A01 T03890142  RH  023%=      5-min Rain = 0
KCL1 192119Z 19014KT 39/14 A2988 RMK A01 T03870140  RH  023%=      5-min Rain = 0
KCL1 192120Z 19013KT 38/14 A2988 RMK A01 T03830139  RH  024%=      5-min Rain = 0
KCL1 192121Z 19011G17KT 38/14 A2988 RMK A01 T03820139  RH  024%=      5-min Rain = 0
KCL1 192122Z 22008KT 38/14 A2988 RMK A01 T03830140  RH  024%=      5-min Rain = 0
KCL1 192123Z 23007G12KT 39/14 A2988 RMK A01 T03890141  RH  023%=      5-min Rain = 0
KCL1 192124Z 20014G20KT 39/14 A2988 RMK A01 T03930137  RH  022%=      5-min Rain = 0
KCL1 192125Z 20014G20KT 39/13 A2988 RMK A01 T03920132  RH  021%=      5-min Rain = 0
KCL1 192126Z 20010KT 39/13 A2988 RMK A01 T03880131  RH  022%=      5-min Rain = 0
KCL1 192127Z 19007KT 39/13 A2988 RMK A01 T03850130  RH  022%=      5-min Rain = 0
KCL1 192128Z 20009KT 38/13 A2988 RMK A01 T03840130  RH  022%=      5-min Rain = 0
KCL1 192129Z 19010KT 39/13 A2988 RMK A01 T03850133  RH  022%=      5-min Rain = 0
KCL1 192130Z 18007KT 38/14 A2988 RMK A01 T03840135  RH  023%=      5-min Rain = 0
KCL1 192131Z 20013KT 39/14 A2988 RMK A01 T03850138  RH  023%=      5-min Rain = 0
KCL1 192132Z 18014KT 39/14 A2988 RMK A01 T03890142  RH  023%=      5-min Rain = 0
KCL1 192133Z 19008KT 39/14 A2988 RMK A01 T03920143  RH  023%=      5-min Rain = 0
KCL1 192134Z 17009KT 39/14 A2988 RMK A01 T03920143  RH  023%=      5-min Rain = 0
KCL1 192135Z 16008KT 39/14 A2988 RMK A01 T03880142  RH  023%=      5-min Rain = 0
KCL1 192136Z 15011KT 38/14 A2988 RMK A01 T03840143  RH  024%=      5-min Rain = 0
KCL1 192137Z 15013KT 38/14 A2988 RMK A01 T03820144  RH  024%=      5-min Rain = 0
KCL1 192138Z 15014KT 38/15 A2988 RMK A01 T03840147  RH  025%=      5-min Rain = 0
KCL1 192139Z 16007KT 39/15 A2988 RMK A01 T03850147  RH  025%=      5-min Rain = 0
KCL1 192140Z 17009KT 39/15 A2988 RMK A01 T03870149  RH  025%=      5-min Rain = 0
KCL1 192141Z 17009KT 39/15 A2988 RMK A01 T03900148  RH  024%=      5-min Rain = 0
KCL1 192142Z 17014G22KT 39/15 A2988 RMK A01 T03920147  RH  024%=      5-min Rain = 0
KCL1 192143Z 16014G21KT 39/14 A2988 RMK A01 T03890144  RH  024%=      5-min Rain = 0
KCL1 192144Z 16014G20KT 39/14 A2988 RMK A01 T03860144  RH  024%=      5-min Rain = 0
KCL1 192145Z 16017KT 39/14 A2987 RMK A01 T03850141  RH  024%=      5-min Rain = 0
KCL1 192146Z 15015KT 38/14 A2987 RMK A01 T03830140  RH  024%=      5-min Rain = 0
KCL1 192147Z 15012KT 38/14 A2987 RMK A01 T03830141  RH  024%=      5-min Rain = 0
KCL1 192148Z 17014KT 38/14 A2987 RMK A01 T03840140  RH  024%=      5-min Rain = 0
KCL1 192149Z 17013KT 39/14 A2987 RMK A01 T03870139  RH  023%=      5-min Rain = 0
KCL1 192150Z 17010KT 39/14 A2987 RMK A01 T03880140  RH  023%=      5-min Rain = 0
KCL1 192151Z 17010KT 39/14 A2987 RMK A01 T03890142  RH  023%=      5-min Rain = 0
KCL1 192152Z 18013KT 39/14 A2987 RMK A01 T03920143  RH  023%=      5-min Rain = 0
KCL1 192153Z 18013KT 39/14 A2987 RMK A01 T03940143  RH  023%=      5-min Rain = 0
KCL1 192154Z 19015KT 39/14 A2987 RMK A01 T03930144  RH  023%=      5-min Rain = 0
KCL1 192155Z 18012KT 39/14 A2987 RMK A01 T03930144  RH  023%=      5-min Rain = 0
KCL1 192156Z 19008KT 39/15 A2987 RMK A01 T03930145  RH  023%=      5-min Rain = 0
KCL1 192157Z 18011KT 40/15 A2987 RMK A01 T03950145  RH  023%=      5-min Rain = 0
KCL1 192158Z 17008G13KT 40/15 A2987 RMK A01 T03960148  RH  023%=      5-min Rain = 0
KCL1 192159Z 18016G22KT 40/15 A2987 RMK A01 T03950146  RH  023%=      5-min Rain = 0
KCL1 192200Z 18016G21KT 39/14 A2987 RMK A01 T03890142  RH  023%=      5-min Rain = 0
KCL1 192201Z 19014KT 39/14 A2987 RMK A01 T03880142  RH  023%=      5-min Rain = 0
KCL1 192202Z 21014G19KT 39/14 A2987 RMK A01 T03900142  RH  023%=      5-min Rain = 0
KCL1 192203Z 20014KT 38/14 A2987 RMK A01 T03840139  RH  023%=      5-min Rain = 0
KCL1 192204Z 19012KT 38/14 A2987 RMK A01 T03780139  RH  024%=      5-min Rain = 0
KCL1 192205Z 18011KT 38/14 A2987 RMK A01 T03760140  RH  025%=      5-min Rain = 0
KCL1 192206Z 19013G18KT 38/14 A2987 RMK A01 T03770142  RH  025%=      5-min Rain = 0
KCL1 192207Z 19011KT 38/14 A2987 RMK A01 T03810142  RH  024%=      5-min Rain = 0
KCL1 192208Z 18011KT 38/14 A2987 RMK A01 T03830143  RH  024%=      5-min Rain = 0
KCL1 192209Z 19010G18KT 39/15 A2987 RMK A01 T03870145  RH  024%=      5-min Rain = 0
KCL1 192210Z 21009KT 39/14 A2987 RMK A01 T03890144  RH  024%=      5-min Rain = 0
KCL1 192211Z 17010G16KT 39/15 A2987 RMK A01 T03870146  RH  024%=      5-min Rain = 0
KCL1 192212Z 17015G22KT 39/15 A2987 RMK A01 T03850146  RH  024%=      5-min Rain = 0
KCL1 192213Z 17010KT 38/15 A2987 RMK A01 T03790146  RH  025%=      5-min Rain = 0
KCL1 192214Z 15009G15KT 38/15 A2987 RMK A01 T03760148  RH  026%=      5-min Rain = 0
KCL1 192215Z 14012KT 37/15 A2987 RMK A01 T03740147  RH  026%=      5-min Rain = 0
KCL1 192216Z 14014KT 37/15 A2987 RMK A01 T03730147  RH  026%=      5-min Rain = 0
KCL1 192217Z 14011KT 38/15 A2987 RMK A01 T03750146  RH  026%=      5-min Rain = 0
KCL1 192218Z 15014G19KT 38/15 A2987 RMK A01 T03790148  RH  025%=      5-min Rain = 0
KCL1 192219Z 17014KT 38/15 A2987 RMK A01 T03830149  RH  025%=      5-min Rain = 0
KCL1 192220Z 19011G16KT 38/15 A2987 RMK A01 T03840147  RH  025%=      5-min Rain = 0
KCL1 192221Z 18013G18KT 39/15 A2987 RMK A01 T03860148  RH  025%=      5-min Rain = 0
KCL1 192222Z 19013KT 39/15 A2987 RMK A01 T03910149  RH  024%=      5-min Rain = 0
KCL1 192223Z 17011KT 39/15 A2987 RMK A01 T03910148  RH  024%=      5-min Rain = 0
KCL1 192224Z 16016G22KT 39/15 A2987 RMK A01 T03900149  RH  024%=      5-min Rain = 0
KCL1 192225Z 15014KT 39/15 A2987 RMK A01 T03890149  RH  024%=      5-min Rain = 0
KCL1 192226Z 16012G18KT 39/15 A2987 RMK A01 T03890149  RH  024%=      5-min Rain = 0
KCL1 192227Z 16014G19KT 39/15 A2986 RMK A01 T03880149  RH  025%=      5-min Rain = 0
KCL1 192228Z 16016KT 39/15 A2986 RMK A01 T03860147  RH  024%=      5-min Rain = 0
KCL1 192229Z 15015KT 38/15 A2987 RMK A01 T03810145  RH  025%=      5-min Rain = 0
KCL1 192230Z 14016KT 38/14 A2986 RMK A01 T03750144  RH  025%=      5-min Rain = 0
KCL1 192231Z 15016G22KT 37/15 A2986 RMK A01 T03720145  RH  026%=      5-min Rain = 0
KCL1 192232Z 17018KT 37/15 A2986 RMK A01 T03720146  RH  026%=      5-min Rain = 0
KCL1 192233Z 17012G18KT 38/15 A2986 RMK A01 T03760146  RH  026%=      5-min Rain = 0
KCL1 192234Z 18018KT 38/15 A2986 RMK A01 T03820146  RH  025%=      5-min Rain = 0
KCL1 192235Z 16015KT 39/14 A2986 RMK A01 T03850144  RH  024%=      5-min Rain = 0
KCL1 192236Z 16014G21KT 39/14 A2986 RMK A01 T03850144  RH  024%=      5-min Rain = 0
KCL1 192237Z 17014KT 39/14 A2986 RMK A01 T03850144  RH  024%=      5-min Rain = 0
KCL1 192238Z 18018KT 39/15 A2986 RMK A01 T03850145  RH  024%=      5-min Rain = 0
KCL1 192239Z 19016G23KT 39/14 A2986 RMK A01 T03860144  RH  024%=      5-min Rain = 0
KCL1 192240Z 18014KT 38/14 A2986 RMK A01 T03840144  RH  024%=      5-min Rain = 0
KCL1 192241Z 17012KT 39/15 A2986 RMK A01 T03850145  RH  024%=      5-min Rain = 0
KCL1 192242Z 15013G18KT 39/15 A2986 RMK A01 T03870146  RH  024%=      5-min Rain = 0
KCL1 192243Z 15018KT 39/15 A2986 RMK A01 T03860145  RH  024%=      5-min Rain = 0
KCL1 192244Z 15016KT 38/14 A2986 RMK A01 T03810143  RH  024%=      5-min Rain = 0
KCL1 192245Z 15012KT 38/14 A2986 RMK A01 T03760143  RH  025%=      5-min Rain = 0
KCL1 192246Z 14012KT 37/14 A2986 RMK A01 T03740143  RH  025%=      5-min Rain = 0
KCL1 192247Z 18012KT 37/14 A2986 RMK A01 T03720144  RH  026%=      5-min Rain = 0
KCL1 192248Z 18013G18KT 37/14 A2986 RMK A01 T03730143  RH  026%=      5-min Rain = 0
KCL1 192249Z 18015G22KT 38/14 A2986 RMK A01 T03780144  RH  025%=      5-min Rain = 0
KCL1 192250Z 15015KT 38/14 A2986 RMK A01 T03810143  RH  024%=      5-min Rain = 0
KCL1 192251Z 15013KT 38/14 A2986 RMK A01 T03820143  RH  024%=      5-min Rain = 0
KCL1 192252Z 16011KT 38/15 A2986 RMK A01 T03830145  RH  024%=      5-min Rain = 0
KCL1 192253Z 17010KT 39/15 A2986 RMK A01 T03850145  RH  024%=      5-min Rain = 0
KCL1 192254Z 16011KT 39/15 A2986 RMK A01 T03860145  RH  024%=      5-min Rain = 0
KCL1 192255Z 17012KT 39/15 A2986 RMK A01 T03870147  RH  024%=      5-min Rain = 0
KCL1 192256Z 17010KT 39/15 A2986 RMK A01 T03890146  RH  024%=      5-min Rain = 0
KCL1 192257Z 19013G18KT 39/15 A2986 RMK A01 T03890146  RH  024%=      5-min Rain = 0
KCL1 192258Z 18013KT 39/15 A2986 RMK A01 T03900145  RH  024%=      5-min Rain = 0
KCL1 192259Z 18011KT 39/15 A2986 RMK A01 T03910147  RH  024%=      5-min Rain = 0
KCL1 192300Z 19012KT 39/15 A2986 RMK A01 T03910145  RH  024%=      5-min Rain = 0
KCL1 192301Z 19012KT 39/14 A2986 RMK A01 T03890143  RH  023%=      5-min Rain = 0
KCL1 192302Z 20012G17KT 39/14 A2986 RMK A01 T03860142  RH  024%=      5-min Rain = 0
KCL1 192303Z 17011KT 39/14 A2986 RMK A01 T03860144  RH  024%=      5-min Rain = 0
KCL1 192304Z 17012G17KT 39/14 A2986 RMK A01 T03870142  RH  024%=      5-min Rain = 0
KCL1 192305Z 17008KT 39/15 A2986 RMK A01 T03850145  RH  024%=      5-min Rain = 0
KCL1 192306Z 19013G18KT 39/14 A2986 RMK A01 T03850143  RH  024%=      5-min Rain = 0
KCL1 192307Z 19014KT 39/14 A2986 RMK A01 T03850140  RH  023%=      5-min Rain = 0
KCL1 192308Z 17016G21KT 38/14 A2986 RMK A01 T03840142  RH  024%=      5-min Rain = 0
KCL1 192309Z 18013G18KT 38/14 A2986 RMK A01 T03830142  RH  024%=      5-min Rain = 0
KCL1 192310Z 18013KT 38/14 A2986 RMK A01 T03830143  RH  024%=      5-min Rain = 0
KCL1 192311Z 17012KT 38/14 A2986 RMK A01 T03840143  RH  024%=      5-min Rain = 0
KCL1 192312Z 19012KT 39/14 A2986 RMK A01 T03850143  RH  024%=      5-min Rain = 0
KCL1 192313Z 17011KT 39/14 A2986 RMK A01 T03850143  RH  024%=      5-min Rain = 0
KCL1 192314Z 17012G17KT 39/14 A2986 RMK A01 T03850143  RH  024%=      5-min Rain = 0
KCL1 192315Z 18011KT 39/14 A2986 RMK A01 T03850143  RH  024%=      5-min Rain = 0
KCL1 192316Z 16016G21KT 39/14 A2986 RMK A01 T03850143  RH  024%=      5-min Rain = 0
KCL1 192317Z 16015G21KT 38/14 A2986 RMK A01 T03840143  RH  024%=      5-min Rain = 0
KCL1 192318Z 18016G21KT 38/14 A2986 RMK A01 T03830142  RH  024%=      5-min Rain = 0
KCL1 192319Z 20012G17KT 38/14 A2986 RMK A01 T03820141  RH  024%=      5-min Rain = 0
KCL1 192320Z 20015G22KT 38/14 A2986 RMK A01 T03830140  RH  024%=      5-min Rain = 0
KCL1 192321Z 20013KT 38/14 A2986 RMK A01 T03830139  RH  024%=      5-min Rain = 0
KCL1 192322Z 19012KT 38/14 A2986 RMK A01 T03820138  RH  024%=      5-min Rain = 0
KCL1 192323Z 19012KT 38/14 A2986 RMK A01 T03790139  RH  024%=      5-min Rain = 0
KCL1 192324Z 19012KT 38/14 A2986 RMK A01 T03790138  RH  024%=      5-min Rain = 0
KCL1 192325Z 19011KT 38/14 A2986 RMK A01 T03800138  RH  024%=      5-min Rain = 0
KCL1 192326Z 19011KT 38/14 A2986 RMK A01 T03800139  RH  024%=      5-min Rain = 0
KCL1 192327Z 19008KT 38/14 A2986 RMK A01 T03790138  RH  024%=      5-min Rain = 0
KCL1 192328Z 18011KT 38/14 A2987 RMK A01 T03780140  RH  024%=      5-min Rain = 0
KCL1 192329Z 17012KT 38/14 A2987 RMK A01 T03800140  RH  024%=      5-min Rain = 0
KCL1 192330Z 19010KT 38/14 A2986 RMK A01 T03810140  RH  024%=      5-min Rain = 0
KCL1 192331Z 17011KT 38/14 A2986 RMK A01 T03800140  RH  024%=      5-min Rain = 0
KCL1 192332Z 17010KT 38/14 A2986 RMK A01 T03780140  RH  024%=      5-min Rain = 0
KCL1 192333Z 17010KT 38/14 A2986 RMK A01 T03770140  RH  025%=      5-min Rain = 0
KCL1 192334Z 19011G16KT 38/14 A2987 RMK A01 T03770140  RH  024%=      5-min Rain = 0
KCL1 192335Z 18011KT 38/14 A2986 RMK A01 T03790140  RH  024%=      5-min Rain = 0
KCL1 192336Z 19012G20KT 38/14 A2986 RMK A01 T03810139  RH  024%=      5-min Rain = 0
KCL1 192337Z 18013KT 38/14 A2986 RMK A01 T03810139  RH  024%=      5-min Rain = 0
KCL1 192338Z 17013KT 38/14 A2986 RMK A01 T03810139  RH  024%=      5-min Rain = 0
KCL1 192339Z 16014KT 38/14 A2986 RMK A01 T03810139  RH  024%=      5-min Rain = 0
KCL1 192340Z 17015G21KT 38/14 A2986 RMK A01 T03800138  RH  024%=      5-min Rain = 0
KCL1 192341Z 18012KT 38/14 A2986 RMK A01 T03790138  RH  024%=      5-min Rain = 0
KCL1 192342Z 18012G17KT 38/14 A2986 RMK A01 T03790138  RH  024%=      5-min Rain = 0
KCL1 192343Z 17015G24KT 38/14 A2986 RMK A01 T03800139  RH  024%=      5-min Rain = 0
KCL1 192344Z 17012G18KT 38/14 A2986 RMK A01 T03790139  RH  024%=      5-min Rain = 0
KCL1 192345Z 18015KT 38/14 A2986 RMK A01 T03790138  RH  024%=      5-min Rain = 0
KCL1 192346Z 19012G20KT 38/14 A2986 RMK A01 T03780137  RH  024%=      5-min Rain = 0
KCL1 192347Z 19015KT 38/14 A2986 RMK A01 T03780137  RH  024%=      5-min Rain = 0
KCL1 192348Z 20011KT 38/14 A2986 RMK A01 T03790136  RH  024%=      5-min Rain = 0
KCL1 192349Z 19010KT 38/14 A2986 RMK A01 T03780136  RH  024%=      5-min Rain = 0
KCL1 192350Z 17012KT 38/14 A2986 RMK A01 T03770136  RH  024%=      5-min Rain = 0
KCL1 192351Z 18010KT 38/14 A2986 RMK A01 T03780138  RH  024%=      5-min Rain = 0
KCL1 192352Z 17012KT 38/14 A2986 RMK A01 T03790138  RH  024%=      5-min Rain = 0
KCL1 192353Z 16012KT 38/14 A2986 RMK A01 T03800138  RH  024%=      5-min Rain = 0
KCL1 192354Z 17009KT 38/14 A2986 RMK A01 T03790138  RH  024%=      5-min Rain = 0
KCL1 192355Z 18010KT 38/14 A2986 RMK A01 T03790139  RH  024%=      5-min Rain = 0
KCL1 192356Z 18011KT 38/14 A2986 RMK A01 T03810138  RH  024%=      5-min Rain = 0
KCL1 192357Z 17013KT 38/14 A2986 RMK A01 T03810137  RH  023%=      5-min Rain = 0
KCL1 192358Z 17012KT 38/14 A2986 RMK A01 T03790136  RH  024%=      5-min Rain = 0
KCL1 192359Z 17008KT 38/14 A2986 RMK A01 T03780136  RH  024%=      5-min Rain = 0
KCL1 200000Z 17010KT 38/14 A2986 RMK A01 T03780136  RH  024%=      5-min Rain = 0
KCL1 200001Z 15011KT 38/14 A2986 RMK A01 T03770136  RH  024%=      5-min Rain = 0
KCL1 200002Z 17013KT 38/14 A2986 RMK A01 T03770137  RH  024%=      5-min Rain = 0
KCL1 200003Z 16013KT 38/14 A2986 RMK A01 T03760136  RH  024%=      5-min Rain = 0
KCL1 200004Z 16015KT 38/14 A2986 RMK A01 T03760137  RH  024%=      5-min Rain = 0
KCL1 200005Z 16014G19KT 38/14 A2986 RMK A01 T03750137  RH  024%=      5-min Rain = 0
KCL1 200006Z 15014G19KT 38/14 A2986 RMK A01 T03750137  RH  024%=      5-min Rain = 0
KCL1 200007Z 16014KT 38/14 A2986 RMK A01 T03750137  RH  024%=      5-min Rain = 0
KCL1 200008Z 18015KT 37/14 A2986 RMK A01 T03740136  RH  024%=      5-min Rain = 0
KCL1 200009Z 16015G20KT 37/14 A2986 RMK A01 T03730137  RH  024%=      5-min Rain = 0
KCL1 200010Z 16012KT 37/14 A2986 RMK A01 T03730138  RH  025%=      5-min Rain = 0
KCL1 200011Z 14013KT 37/14 A2986 RMK A01 T03730139  RH  025%=      5-min Rain = 0
KCL1 200012Z 16014KT 37/14 A2986 RMK A01 T03730139  RH  025%=      5-min Rain = 0
KCL1 200013Z 17014G19KT 37/14 A2986 RMK A01 T03730136  RH  024%=      5-min Rain = 0
KCL1 200014Z 17015KT 37/14 A2986 RMK A01 T03710136  RH  025%=      5-min Rain = 0
KCL1 200015Z 17016KT 37/14 A2986 RMK A01 T03700135  RH  025%=      5-min Rain = 0
KCL1 200016Z 17015KT 37/13 A2986 RMK A01 T03680134  RH  025%=      5-min Rain = 0
KCL1 200017Z 17011KT 37/14 A2986 RMK A01 T03680135  RH  025%=      5-min Rain = 0
KCL1 200018Z 17009KT 37/14 A2987 RMK A01 T03670136  RH  025%=      5-min Rain = 0
KCL1 200019Z 17011KT 37/14 A2987 RMK A01 T03670137  RH  025%=      5-min Rain = 0
KCL1 200020Z 17011G17KT 37/14 A2987 RMK A01 T03660135  RH  025%=      5-min Rain = 0
KCL1 200021Z 17012KT 37/14 A2987 RMK A01 T03650135  RH  025%=      5-min Rain = 0
KCL1 200022Z 17009KT 37/14 A2987 RMK A01 T03650135  RH  025%=      5-min Rain = 0
KCL1 200023Z 16010G16KT 37/14 A2987 RMK A01 T03650136  RH  025%=      5-min Rain = 0
KCL1 200024Z 17016KT 36/14 A2987 RMK A01 T03640135  RH  025%=      5-min Rain = 0
KCL1 200025Z 18011G17KT 36/14 A2987 RMK A01 T03630135  RH  025%=      5-min Rain = 0
KCL1 200026Z 16016KT 36/14 A2987 RMK A01 T03630135  RH  026%=      5-min Rain = 0
KCL1 200027Z 17013KT 36/13 A2987 RMK A01 T03630134  RH  025%=      5-min Rain = 0
KCL1 200028Z 18011G18KT 36/14 A2987 RMK A01 T03630135  RH  026%=      5-min Rain = 0
KCL1 200029Z 18014KT 36/13 A2987 RMK A01 T03630134  RH  025%=      5-min Rain = 0
KCL1 200030Z 17015G20KT 36/13 A2987 RMK A01 T03630134  RH  026%=      5-min Rain = 0
KCL1 200031Z 17013G19KT 36/14 A2987 RMK A01 T03630135  RH  026%=      5-min Rain = 0
KCL1 200032Z 18011G16KT 36/13 A2987 RMK A01 T03620134  RH  026%=      5-min Rain = 0
KCL1 200033Z 19014G20KT 36/13 A2987 RMK A01 T03620134  RH  026%=      5-min Rain = 0
KCL1 200034Z 17014G22KT 36/13 A2987 RMK A01 T03610132  RH  025%=      5-min Rain = 0
KCL1 200035Z 17014KT 36/13 A2987 RMK A01 T03600132  RH  026%=      5-min Rain = 0
KCL1 200036Z 17015G20KT 36/13 A2987 RMK A01 T03590132  RH  026%=      5-min Rain = 0
KCL1 200037Z 16013KT 36/13 A2987 RMK A01 T03590132  RH  026%=      5-min Rain = 0
KCL1 200038Z 16014KT 36/13 A2987 RMK A01 T03580131  RH  026%=      5-min Rain = 0
KCL1 200039Z 17015G21KT 36/13 A2987 RMK A01 T03570131  RH  026%=      5-min Rain = 0
KCL1 200040Z 17016G22KT 36/13 A2987 RMK A01 T03570130  RH  026%=      5-min Rain = 0
KCL1 200041Z 17018G23KT 36/13 A2987 RMK A01 T03570130  RH  026%=      5-min Rain = 0
KCL1 200042Z 18016KT 36/13 A2987 RMK A01 T03570130  RH  026%=      5-min Rain = 0
KCL1 200043Z 18012KT 36/13 A2987 RMK A01 T03570130  RH  026%=      5-min Rain = 0
KCL1 200044Z 18010KT 36/13 A2987 RMK A01 T03570130  RH  026%=      5-min Rain = 0
KCL1 200045Z 20012KT 36/13 A2987 RMK A01 T03570130  RH  026%=      5-min Rain = 0
KCL1 200046Z 19014KT 36/13 A2987 RMK A01 T03570130  RH  026%=      5-min Rain = 0
KCL1 200047Z 18012KT 36/13 A2987 RMK A01 T03570130  RH  026%=      5-min Rain = 0
KCL1 200048Z 17012KT 36/13 A2987 RMK A01 T03570130  RH  026%=      5-min Rain = 0
KCL1 200049Z 17012KT 36/13 A2987 RMK A01 T03560131  RH  026%=      5-min Rain = 0
KCL1 200050Z 17011KT 36/13 A2987 RMK A01 T03560131  RH  026%=      5-min Rain = 0
KCL1 200051Z 17014G19KT 36/13 A2987 RMK A01 T03550130  RH  026%=      5-min Rain = 0
KCL1 200052Z 17010KT 35/13 A2987 RMK A01 T03540130  RH  026%=      5-min Rain = 0
KCL1 200053Z 17013KT 35/13 A2988 RMK A01 T03540131  RH  026%=      5-min Rain = 0
KCL1 200054Z 17014KT 35/13 A2987 RMK A01 T03540131  RH  026%=      5-min Rain = 0
KCL1 200055Z 17012KT 35/13 A2988 RMK A01 T03540131  RH  026%=      5-min Rain = 0
KCL1 200056Z 18012KT 35/13 A2988 RMK A01 T03540131  RH  026%=      5-min Rain = 0
KCL1 200057Z 17013G19KT 35/13 A2988 RMK A01 T03540131  RH  026%=      5-min Rain = 0
KCL1 200058Z 17015KT 35/13 A2988 RMK A01 T03540131  RH  026%=      5-min Rain = 0
KCL1 200059Z 17015KT 35/13 A2988 RMK A01 T03530131  RH  026%=      5-min Rain = 0
KCL1 200100Z 17013KT 35/13 A2988 RMK A01 T03530131  RH  026%=      5-min Rain = 0
KCL1 200101Z 17012KT 35/13 A2988 RMK A01 T03530131  RH  026%=      5-min Rain = 0
KCL1 200102Z 18012KT 35/13 A2988 RMK A01 T03530131  RH  026%=      5-min Rain = 0
KCL1 200103Z 17016KT 35/13 A2988 RMK A01 T03520131  RH  026%=      5-min Rain = 0
KCL1 200104Z 17014KT 35/13 A2988 RMK A01 T03520130  RH  026%=      5-min Rain = 0
KCL1 200105Z 17014KT 35/13 A2988 RMK A01 T03520130  RH  026%=      5-min Rain = 0
KCL1 200106Z 18012KT 35/13 A2988 RMK A01 T03520130  RH  026%=      5-min Rain = 0
KCL1 200107Z 18012G18KT 35/13 A2988 RMK A01 T03520130  RH  026%=      5-min Rain = 0
KCL1 200108Z 17014G19KT 35/13 A2988 RMK A01 T03520130  RH  026%=      5-min Rain = 0
KCL1 200109Z 17008KT 35/13 A2988 RMK A01 T03520129  RH  026%=      5-min Rain = 0
KCL1 200110Z 18011G16KT 35/13 A2988 RMK A01 T03510130  RH  026%=      5-min Rain = 0
KCL1 200111Z 16012KT 35/13 A2988 RMK A01 T03510130  RH  026%=      5-min Rain = 0
KCL1 200112Z 17013KT 35/13 A2988 RMK A01 T03500129  RH  026%=      5-min Rain = 0
KCL1 200113Z 18012KT 35/13 A2988 RMK A01 T03510129  RH  026%=      5-min Rain = 0
KCL1 200114Z 17012KT 35/13 A2988 RMK A01 T03500129  RH  026%=      5-min Rain = 0
KCL1 200115Z 17015G21KT 35/13 A2988 RMK A01 T03500128  RH  026%=      5-min Rain = 0
KCL1 200116Z 18015KT 35/13 A2988 RMK A01 T03500128  RH  026%=      5-min Rain = 0
KCL1 200117Z 17012KT 35/13 A2988 RMK A01 T03500128  RH  026%=      5-min Rain = 0
KCL1 200118Z 18011G17KT 35/13 A2988 RMK A01 T03500128  RH  026%=      5-min Rain = 0
KCL1 200119Z 17013G18KT 35/13 A2988 RMK A01 T03500128  RH  026%=      5-min Rain = 0
KCL1 200120Z 17013KT 35/13 A2988 RMK A01 T03500128  RH  026%=      5-min Rain = 0
KCL1 200121Z 17010G16KT 35/13 A2988 RMK A01 T03500127  RH  026%=      5-min Rain = 0
KCL1 200122Z 18008KT 35/13 A2988 RMK A01 T03500128  RH  026%=      5-min Rain = 0
KCL1 200123Z 17012KT 35/13 A2988 RMK A01 T03490127  RH  026%=      5-min Rain = 0
KCL1 200124Z 18012KT 35/13 A2988 RMK A01 T03490128  RH  026%=      5-min Rain = 0
KCL1 200125Z 17012KT 35/13 A2988 RMK A01 T03480127  RH  026%=      5-min Rain = 0
KCL1 200126Z 18011KT 35/13 A2988 RMK A01 T03480128  RH  026%=      5-min Rain = 0
KCL1 200127Z 17007KT 35/13 A2988 RMK A01 T03480128  RH  026%=      5-min Rain = 0
KCL1 200128Z 17011KT 35/13 A2988 RMK A01 T03470128  RH  027%=      5-min Rain = 0
KCL1 200129Z 17011KT 35/13 A2988 RMK A01 T03460128  RH  027%=      5-min Rain = 0
KCL1 200130Z 17011G16KT 35/13 A2988 RMK A01 T03460127  RH  027%=      5-min Rain = 0
KCL1 200131Z 17011KT 35/13 A2988 RMK A01 T03460127  RH  027%=      5-min Rain = 0
KCL1 200132Z 18011KT 35/13 A2988 RMK A01 T03460127  RH  027%=      5-min Rain = 0
KCL1 200133Z 17009KT 35/13 A2988 RMK A01 T03460128  RH  027%=      5-min Rain = 0
KCL1 200134Z 17011KT 35/13 A2988 RMK A01 T03460128  RH  027%=      5-min Rain = 0
KCL1 200135Z 18010KT 35/13 A2988 RMK A01 T03460128  RH  027%=      5-min Rain = 0
KCL1 200136Z 16012KT 35/13 A2988 RMK A01 T03450127  RH  027%=      5-min Rain = 0
KCL1 200137Z 17010KT 35/13 A2988 RMK A01 T03450128  RH  027%=      5-min Rain = 0
KCL1 200138Z 17010KT 35/13 A2988 RMK A01 T03450128  RH  027%=      5-min Rain = 0
KCL1 200139Z 17012KT 35/13 A2988 RMK A01 T03450128  RH  027%=      5-min Rain = 0
KCL1 200140Z 17016KT 35/13 A2988 RMK A01 T03450128  RH  027%=      5-min Rain = 0
KCL1 200141Z 17013KT 35/13 A2988 RMK A01 T03450128  RH  027%=      5-min Rain = 0
KCL1 200142Z 17013KT 35/13 A2988 RMK A01 T03450128  RH  027%=      5-min Rain = 0
KCL1 200143Z 17013KT 34/13 A2988 RMK A01 T03440128  RH  027%=      5-min Rain = 0
KCL1 200144Z 17014KT 34/13 A2988 RMK A01 T03440128  RH  027%=      5-min Rain = 0
KCL1 200145Z 17012G18KT 34/13 A2988 RMK A01 T03440128  RH  027%=      5-min Rain = 0
KCL1 200146Z 17014G19KT 34/13 A2988 RMK A01 T03440129  RH  027%=      5-min Rain = 0
KCL1 200147Z 18012KT 34/13 A2988 RMK A01 T03440129  RH  027%=      5-min Rain = 0
KCL1 200148Z 17009G15KT 34/13 A2988 RMK A01 T03440129  RH  027%=      5-min Rain = 0
KCL1 200149Z 17013KT 34/13 A2988 RMK A01 T03420128  RH  027%=      5-min Rain = 0
KCL1 200150Z 17012KT 34/13 A2988 RMK A01 T03420129  RH  028%=      5-min Rain = 0
KCL1 200151Z 17011KT 34/13 A2988 RMK A01 T03420129  RH  028%=      5-min Rain = 0
KCL1 200152Z 18010KT 34/13 A2989 RMK A01 T03410129  RH  028%=      5-min Rain = 0
KCL1 200153Z 17008KT 34/13 A2989 RMK A01 T03410129  RH  028%=      5-min Rain = 0
KCL1 200154Z 17008KT 34/13 A2989 RMK A01 T03400130  RH  028%=      5-min Rain = 0
KCL1 200155Z 17011KT 34/13 A2989 RMK A01 T03390130  RH  028%=      5-min Rain = 0
KCL1 200156Z 17011KT 34/13 A2989 RMK A01 T03380130  RH  028%=      5-min Rain = 0
KCL1 200157Z 18012KT 34/13 A2989 RMK A01 T03390130  RH  028%=      5-min Rain = 0
KCL1 200158Z 17011KT 34/13 A2989 RMK A01 T03390131  RH  028%=      5-min Rain = 0
KCL1 200159Z 17011G17KT 34/13 A2989 RMK A01 T03390131  RH  028%=      5-min Rain = 0
KCL1 200200Z 17011KT 34/13 A2989 RMK A01 T03380131  RH  029%=      5-min Rain = 0
KCL1 200201Z 17011KT 34/13 A2989 RMK A01 T03380131  RH  029%=      5-min Rain = 0
KCL1 200202Z 17009KT 34/13 A2989 RMK A01 T03380131  RH  029%=      5-min Rain = 0
KCL1 200203Z 17009KT 34/13 A2989 RMK A01 T03370132  RH  029%=      5-min Rain = 0
KCL1 200204Z 17012KT 34/13 A2989 RMK A01 T03370132  RH  029%=      5-min Rain = 0
KCL1 200205Z 17013G18KT 34/13 A2989 RMK A01 T03370132  RH  029%=      5-min Rain = 0
KCL1 200206Z 17010KT 34/13 A2989 RMK A01 T03370132  RH  029%=      5-min Rain = 0
KCL1 200207Z 17010G15KT 34/13 A2989 RMK A01 T03370132  RH  029%=      5-min Rain = 0
KCL1 200208Z 18010KT 34/13 A2989 RMK A01 T03360132  RH  029%=      5-min Rain = 0
KCL1 200209Z 17009KT 34/13 A2989 RMK A01 T03360132  RH  029%=      5-min Rain = 0
KCL1 200210Z 17013KT 34/13 A2989 RMK A01 T03360133  RH  029%=      5-min Rain = 0
KCL1 200211Z 17011KT 34/13 A2989 RMK A01 T03360133  RH  029%=      5-min Rain = 0
KCL1 200212Z 17008KT 34/13 A2989 RMK A01 T03360133  RH  029%=      5-min Rain = 0
KCL1 200213Z 17012KT 34/13 A2989 RMK A01 T03360133  RH  029%=      5-min Rain = 0
KCL1 200214Z 17009KT 34/13 A2989 RMK A01 T03350133  RH  029%=      5-min Rain = 0
KCL1 200215Z 17009KT 34/13 A2989 RMK A01 T03350133  RH  030%=      5-min Rain = 0
KCL1 200216Z 18012KT 33/13 A2989 RMK A01 T03340133  RH  030%=      5-min Rain = 0
KCL1 200217Z 17011KT 33/13 A2989 RMK A01 T03340133  RH  030%=      5-min Rain = 0
KCL1 200218Z 17011KT 33/13 A2989 RMK A01 T03340133  RH  030%=      5-min Rain = 0
KCL1 200219Z 17008KT 33/13 A2989 RMK A01 T03340133  RH  030%=      5-min Rain = 0
KCL1 200220Z 17009KT 33/13 A2989 RMK A01 T03330133  RH  030%=      5-min Rain = 0
KCL1 200221Z 17009KT 33/13 A2989 RMK A01 T03330133  RH  030%=      5-min Rain = 0
KCL1 200222Z 17010KT 33/13 A299 RMK A01 T03320133  RH  030%=      5-min Rain = 0
KCL1 200223Z 18009KT 33/13 A299 RMK A01 T03320134  RH  030%=      5-min Rain = 0
KCL1 200224Z 17009KT 33/13 A299 RMK A01 T03320133  RH  030%=      5-min Rain = 0
KCL1 200225Z 17009KT 33/13 A299 RMK A01 T03320133  RH  030%=      5-min Rain = 0
KCL1 200226Z 17011KT 33/13 A299 RMK A01 T03310134  RH  030%=      5-min Rain = 0
KCL1 200227Z 17009KT 33/13 A299 RMK A01 T03310133  RH  030%=      5-min Rain = 0
KCL1 200228Z 17012KT 33/13 A299 RMK A01 T03310134  RH  030%=      5-min Rain = 0
KCL1 200229Z 17009KT 33/13 A299 RMK A01 T03310133  RH  030%=      5-min Rain = 0
KCL1 200230Z 17011KT 33/13 A299 RMK A01 T03310134  RH  030%=      5-min Rain = 0
KCL1 200231Z 17008KT 33/13 A299 RMK A01 T03300134  RH  030%=      5-min Rain = 0
KCL1 200232Z 17007KT 33/13 A299 RMK A01 T03300134  RH  031%=      5-min Rain = 0
KCL1 200233Z 17008KT 33/13 A299 RMK A01 T03290134  RH  031%=      5-min Rain = 0
KCL1 200234Z 17009KT 33/13 A299 RMK A01 T03280133  RH  031%=      5-min Rain = 0
KCL1 200235Z 17007KT 33/13 A299 RMK A01 T03280133  RH  031%=      5-min Rain = 0
KCL1 200236Z 17007KT 33/13 A299 RMK A01 T03280134  RH  031%=      5-min Rain = 0
KCL1 200237Z 18011KT 33/13 A299 RMK A01 T03270133  RH  031%=      5-min Rain = 0
KCL1 200238Z 17011KT 33/13 A299 RMK A01 T03270133  RH  031%=      5-min Rain = 0
KCL1 200239Z 17010KT 33/13 A299 RMK A01 T03290133  RH  030%=      5-min Rain = 0
KCL1 200240Z 16009KT 33/13 A299 RMK A01 T03300133  RH  030%=      5-min Rain = 0
KCL1 200241Z 18011G18KT 33/13 A299 RMK A01 T03300133  RH  030%=      5-min Rain = 0
KCL1 200242Z 18011KT 33/13 A299 RMK A01 T03300133  RH  030%=      5-min Rain = 0
KCL1 200243Z 18010KT 33/13 A299 RMK A01 T03300133  RH  030%=      5-min Rain = 0
KCL1 200244Z 18010KT 33/13 A299 RMK A01 T03290132  RH  030%=      5-min Rain = 0
KCL1 200245Z 17010KT 33/13 A299 RMK A01 T03290132  RH  030%=      5-min Rain = 0
KCL1 200246Z 17008KT 33/13 A299 RMK A01 T03290132  RH  030%=      5-min Rain = 0
KCL1 200247Z 17011KT 33/13 A299 RMK A01 T03280133  RH  031%=      5-min Rain = 0
KCL1 200248Z 17009KT 33/13 A299 RMK A01 T03280132  RH  030%=      5-min Rain = 0
KCL1 200249Z 17010KT 33/13 A299 RMK A01 T03280131  RH  030%=      5-min Rain = 0
KCL1 200250Z 17011KT 33/13 A299 RMK A01 T03280132  RH  030%=      5-min Rain = 0
KCL1 200251Z 18009G14KT 33/13 A299 RMK A01 T03280131  RH  030%=      5-min Rain = 0
KCL1 200252Z 17009KT 33/13 A299 RMK A01 T03280131  RH  030%=      5-min Rain = 0
KCL1 200253Z 17011G17KT 33/13 A299 RMK A01 T03280131  RH  030%=      5-min Rain = 0
KCL1 200254Z 17012KT 33/13 A299 RMK A01 T03280131  RH  030%=      5-min Rain = 0
KCL1 200255Z 17011KT 33/13 A299 RMK A01 T03270131  RH  030%=      5-min Rain = 0
KCL1 200256Z 17010KT 33/13 A299 RMK A01 T03270131  RH  030%=      5-min Rain = 0
KCL1 200257Z 17013KT 33/13 A299 RMK A01 T03270131  RH  030%=      5-min Rain = 0
KCL1 200258Z 17011KT 33/13 A299 RMK A01 T03270131  RH  030%=      5-min Rain = 0
KCL1 200259Z 17010KT 33/13 A2991 RMK A01 T03270130  RH  030%=      5-min Rain = 0
KCL1 200300Z 17010KT 33/13 A2991 RMK A01 T03270131  RH  030%=      5-min Rain = 0
KCL1 200301Z 17008KT 33/13 A2991 RMK A01 T03270131  RH  031%=      5-min Rain = 0
KCL1 200302Z 17008KT 33/13 A2991 RMK A01 T03250131  RH  031%=      5-min Rain = 0
KCL1 200303Z 17009G14KT 33/13 A2991 RMK A01 T03250131  RH  031%=      5-min Rain = 0
KCL1 200304Z 16009KT 32/13 A2991 RMK A01 T03240130  RH  031%=      5-min Rain = 0
KCL1 200305Z 17010KT 32/13 A2991 RMK A01 T03240130  RH  031%=      5-min Rain = 0
KCL1 200306Z 16009KT 32/13 A2991 RMK A01 T03240131  RH  031%=      5-min Rain = 0
KCL1 200307Z 17010KT 32/13 A2991 RMK A01 T03230130  RH  031%=      5-min Rain = 0
KCL1 200308Z 17010KT 32/13 A2991 RMK A01 T03240130  RH  031%=      5-min Rain = 0
KCL1 200309Z 16009KT 32/13 A2991 RMK A01 T03230130  RH  031%=      5-min Rain = 0
KCL1 200310Z 17009KT 32/13 A2991 RMK A01 T03230130  RH  031%=      5-min Rain = 0
KCL1 200311Z 17008KT 32/13 A2991 RMK A01 T03230130  RH  031%=      5-min Rain = 0
KCL1 200312Z 16008KT 32/13 A2991 RMK A01 T03230130  RH  031%=      5-min Rain = 0
KCL1 200313Z 16009KT 32/13 A2991 RMK A01 T03220130  RH  031%=      5-min Rain = 0
KCL1 200314Z 17008KT 32/13 A2991 RMK A01 T03220131  RH  031%=      5-min Rain = 0
KCL1 200315Z 16009KT 32/13 A2991 RMK A01 T03210130  RH  031%=      5-min Rain = 0
KCL1 200316Z 16011KT 32/13 A2991 RMK A01 T03210130  RH  031%=      5-min Rain = 0
KCL1 200317Z 17008KT 32/13 A2991 RMK A01 T03210130  RH  031%=      5-min Rain = 0
KCL1 200318Z 16008KT 32/13 A2991 RMK A01 T03210130  RH  031%=      5-min Rain = 0
KCL1 200319Z 16009KT 32/13 A2991 RMK A01 T03210130  RH  031%=      5-min Rain = 0
KCL1 200320Z 17008KT 32/13 A2991 RMK A01 T03200130  RH  031%=      5-min Rain = 0
KCL1 200321Z 16008KT 32/13 A2991 RMK A01 T03200130  RH  031%=      5-min Rain = 0
KCL1 200322Z 16008KT 32/13 A2991 RMK A01 T03200130  RH  031%=      5-min Rain = 0
KCL1 200323Z 17009KT 32/13 A2991 RMK A01 T03200130  RH  031%=      5-min Rain = 0
KCL1 200324Z 16008KT 32/13 A2991 RMK A01 T03190130  RH  032%=      5-min Rain = 0
KCL1 200325Z 16008KT 32/13 A2991 RMK A01 T03190130  RH  032%=      5-min Rain = 0
KCL1 200326Z 17010KT 32/13 A2991 RMK A01 T03190130  RH  032%=      5-min Rain = 0
KCL1 200327Z 16008KT 32/13 A2991 RMK A01 T03190130  RH  032%=      5-min Rain = 0
KCL1 200328Z 15008KT 32/13 A2991 RMK A01 T03180129  RH  032%=      5-min Rain = 0
KCL1 200329Z 16009KT 32/13 A2991 RMK A01 T03180130  RH  032%=      5-min Rain = 0
KCL1 200330Z 16009G14KT 32/13 A2991 RMK A01 T03180130  RH  032%=      5-min Rain = 0
KCL1 200331Z 16009KT 32/13 A2991 RMK A01 T03170129  RH  032%=      5-min Rain = 0
KCL1 200332Z 16009KT 32/13 A2991 RMK A01 T03170129  RH  032%=      5-min Rain = 0
KCL1 200333Z 15009KT 32/13 A2991 RMK A01 T03180129  RH  032%=      5-min Rain = 0
KCL1 200334Z 15008KT 32/13 A2991 RMK A01 T03180129  RH  031%=      5-min Rain = 0
KCL1 200335Z 14008KT 32/13 A2991 RMK A01 T03180129  RH  031%=      5-min Rain = 0
KCL1 200336Z 16010KT 32/13 A2991 RMK A01 T03180128  RH  031%=      5-min Rain = 0
KCL1 200337Z 16009KT 32/13 A2991 RMK A01 T03180128  RH  031%=      5-min Rain = 0
KCL1 200338Z 16009KT 32/13 A2991 RMK A01 T03180128  RH  031%=      5-min Rain = 0
KCL1 200339Z 16009G14KT 32/13 A2991 RMK A01 T03180128  RH  031%=      5-min Rain = 0
KCL1 200340Z 15008KT 32/13 A2992 RMK A01 T03180128  RH  031%=      5-min Rain = 0
KCL1 200341Z 16008KT 32/13 A2992 RMK A01 T03180127  RH  031%=      5-min Rain = 0
KCL1 200342Z 14008KT 32/13 A2992 RMK A01 T03180128  RH  031%=      5-min Rain = 0
KCL1 200343Z 16009KT 32/13 A2992 RMK A01 T03180128  RH  031%=      5-min Rain = 0
KCL1 200344Z 16007KT 32/13 A2992 RMK A01 T03180128  RH  031%=      5-min Rain = 0
KCL1 200345Z 14008KT 32/13 A2992 RMK A01 T03180128  RH  031%=      5-min Rain = 0
KCL1 200346Z 14008KT 32/13 A2992 RMK A01 T03170128  RH  032%=      5-min Rain = 0
KCL1 200347Z 13006KT 32/13 A2992 RMK A01 T03160128  RH  032%=      5-min Rain = 0
KCL1 200348Z 14007KT 31/13 A2992 RMK A01 T03140128  RH  032%=      5-min Rain = 0
KCL1 200349Z 13007KT 31/13 A2992 RMK A01 T03120128  RH  033%=      5-min Rain = 0
KCL1 200350Z 13006KT 31/13 A2992 RMK A01 T03100129  RH  033%=      5-min Rain = 0
KCL1 200351Z 13007KT 31/13 A2992 RMK A01 T03080128  RH  033%=      5-min Rain = 0
KCL1 200352Z 14007KT 31/13 A2992 RMK A01 T03060128  RH  034%=      5-min Rain = 0
KCL1 200353Z 14008KT 30/13 A2992 RMK A01 T03040128  RH  034%=      5-min Rain = 0
KCL1 200354Z 14007KT 30/13 A2992 RMK A01 T03030128  RH  034%=      5-min Rain = 0
KCL1 200355Z 14007KT 30/13 A2992 RMK A01 T03030128  RH  034%=      5-min Rain = 0
KCL1 200356Z 14007KT 30/13 A2992 RMK A01 T03020128  RH  034%=      5-min Rain = 0
KCL1 200357Z 15006KT 30/13 A2992 RMK A01 T03010128  RH  035%=      5-min Rain = 0
KCL1 200358Z 15006KT 30/13 A2992 RMK A01 T03010129  RH  035%=      5-min Rain = 0
KCL1 200359Z 14007KT 30/13 A2992 RMK A01 T03000128  RH  035%=      5-min Rain = 0
KCL1 200400Z 15007KT 30/13 A2992 RMK A01 T02990128  RH  035%=      5-min Rain = 0
KCL1 200401Z 14006KT 30/13 A2992 RMK A01 T03000128  RH  035%=      5-min Rain = 0
KCL1 200402Z 14007KT 30/13 A2992 RMK A01 T03010128  RH  035%=      5-min Rain = 0
KCL1 200403Z 15007KT 30/13 A2992 RMK A01 T03010128  RH  035%=      5-min Rain = 0
KCL1 200404Z 15009KT 30/13 A2992 RMK A01 T03010128  RH  035%=      5-min Rain = 0
KCL1 200405Z 15008KT 30/13 A2992 RMK A01 T03040128  RH  034%=      5-min Rain = 0
KCL1 200406Z 15006KT 31/13 A2992 RMK A01 T03070129  RH  034%=      5-min Rain = 0
KCL1 200407Z 15008KT 31/13 A2992 RMK A01 T03080129  RH  033%=      5-min Rain = 0
KCL1 200408Z 15008KT 31/13 A2992 RMK A01 T03080129  RH  033%=      5-min Rain = 0
KCL1 200409Z 15006KT 31/13 A2992 RMK A01 T03080130  RH  034%=      5-min Rain = 0
KCL1 200410Z 15006KT 31/13 A2992 RMK A01 T03080130  RH  034%=      5-min Rain = 0
KCL1 200411Z 15009KT 31/13 A2992 RMK A01 T03070130  RH  034%=      5-min Rain = 0
KCL1 200412Z 14008KT 31/13 A2992 RMK A01 T03070130  RH  034%=      5-min Rain = 0
KCL1 200413Z 14007KT 31/13 A2992 RMK A01 T03080130  RH  034%=      5-min Rain = 0
KCL1 200414Z 14007KT 31/13 A2992 RMK A01 T03070130  RH  034%=      5-min Rain = 0
KCL1 200415Z 13008KT 31/13 A2992 RMK A01 T03060130  RH  034%=      5-min Rain = 0
KCL1 200416Z 14009KT 30/13 A2992 RMK A01 T03040130  RH  034%=      5-min Rain = 0
KCL1 200417Z 14009KT 30/13 A2992 RMK A01 T03020130  RH  035%=      5-min Rain = 0
KCL1 200418Z 14009KT 30/13 A2992 RMK A01 T03010130  RH  035%=      5-min Rain = 0
KCL1 200419Z 14010KT 30/13 A2992 RMK A01 T03010130  RH  035%=      5-min Rain = 0
KCL1 200420Z 14010KT 30/13 A2992 RMK A01 T03000130  RH  035%=      5-min Rain = 0
KCL1 200421Z 15011KT 30/13 A2993 RMK A01 T03000130  RH  035%=      5-min Rain = 0
KCL1 200422Z 15010KT 30/13 A2993 RMK A01 T03000130  RH  035%=      5-min Rain = 0
KCL1 200423Z 14010KT 30/13 A2993 RMK A01 T03010130  RH  035%=      5-min Rain = 0
KCL1 200424Z 15010KT 30/13 A2993 RMK A01 T03010130  RH  035%=      5-min Rain = 0
KCL1 200425Z 15010KT 30/13 A2993 RMK A01 T03020130  RH  035%=      5-min Rain = 0
KCL1 200426Z 15010KT 30/13 A2993 RMK A01 T03030130  RH  035%=      5-min Rain = 0
KCL1 200427Z 15011KT 30/13 A2993 RMK A01 T03040130  RH  034%=      5-min Rain = 0
KCL1 200428Z 15012KT 31/13 A2993 RMK A01 T03050131  RH  034%=      5-min Rain = 0
KCL1 200429Z 15011KT 31/13 A2993 RMK A01 T03060131  RH  034%=      5-min Rain = 0
KCL1 200430Z 15010KT 31/13 A2993 RMK A01 T03070132  RH  034%=      5-min Rain = 0
KCL1 200431Z 15010KT 31/13 A2993 RMK A01 T03070132  RH  034%=      5-min Rain = 0
KCL1 200432Z 15012KT 31/13 A2993 RMK A01 T03060133  RH  035%=      5-min Rain = 0
KCL1 200433Z 15010KT 31/13 A2993 RMK A01 T03060133  RH  035%=      5-min Rain = 0
KCL1 200434Z 15011KT 31/13 A2993 RMK A01 T03060133  RH  035%=      5-min Rain = 0
KCL1 200435Z 16014KT 31/13 A2993 RMK A01 T03050132  RH  035%=      5-min Rain = 0
KCL1 200436Z 16009KT 31/13 A2993 RMK A01 T03060132  RH  034%=      5-min Rain = 0
KCL1 200437Z 16011KT 31/13 A2993 RMK A01 T03070132  RH  034%=      5-min Rain = 0
KCL1 200438Z 16011KT 31/13 A2993 RMK A01 T03080132  RH  034%=      5-min Rain = 0
KCL1 200439Z 17016KT 31/13 A2993 RMK A01 T03090132  RH  034%=      5-min Rain = 0
KCL1 200440Z 16012KT 31/13 A2993 RMK A01 T03100132  RH  034%=      5-min Rain = 0
KCL1 200441Z 17014KT 31/13 A2993 RMK A01 T03110132  RH  033%=      5-min Rain = 0
KCL1 200442Z 18014KT 31/13 A2993 RMK A01 T03120132  RH  033%=      5-min Rain = 0
KCL1 200443Z 16015KT 31/13 A2993 RMK A01 T03120133  RH  034%=      5-min Rain = 0
KCL1 200444Z 15015KT 31/13 A2993 RMK A01 T03130134  RH  034%=      5-min Rain = 0
KCL1 200445Z 16011KT 31/14 A2993 RMK A01 T03120135  RH  034%=      5-min Rain = 0
KCL1 200446Z 17014KT 31/14 A2993 RMK A01 T03110135  RH  034%=      5-min Rain = 0
KCL1 200447Z 15015KT 31/14 A2993 RMK A01 T03110136  RH  034%=      5-min Rain = 0
KCL1 200448Z 16013KT 31/14 A2993 RMK A01 T03110135  RH  034%=      5-min Rain = 0
KCL1 200449Z 17018KT 31/14 A2993 RMK A01 T03110136  RH  034%=      5-min Rain = 0
KCL1 200450Z 18019G25KT 31/14 A2993 RMK A01 T03110138  RH  035%=      5-min Rain = 0
KCL1 200451Z 17018G25KT 31/14 A2993 RMK A01 T03110139  RH  035%=      5-min Rain = 0
KCL1 200452Z 16021G26KT 31/14 A2993 RMK A01 T03110140  RH  035%=      5-min Rain = 0
KCL1 200453Z 17014KT 31/14 A2993 RMK A01 T03110140  RH  035%=      5-min Rain = 0
KCL1 200454Z 16017KT 31/14 A2993 RMK A01 T03100141  RH  036%=      5-min Rain = 0
KCL1 200455Z 16017G25KT 31/14 A2993 RMK A01 T03090141  RH  036%=      5-min Rain = 0
KCL1 200456Z 15014G19KT 31/14 A2993 RMK A01 T03090141  RH  036%=      5-min Rain = 0
KCL1 200457Z 15014G20KT 31/14 A2993 RMK A01 T03080142  RH  036%=      5-min Rain = 0
KCL1 200458Z 16013KT 31/14 A2993 RMK A01 T03070142  RH  037%=      5-min Rain = 0
KCL1 200459Z 16011G16KT 31/14 A2994 RMK A01 T03060142  RH  037%=      5-min Rain = 0

Page generated in 0.1336 seconds.